<?xml version="1.0" encoding="UTF-8" standalone="no" ?>
<gpx xmlns="http://www.topografix.com/GPX/1/1" xmlns:xsi="http://www.w3.org/2001/XMLSchema-instance" xsi:schemaLocation="http://www.topografix.com/GPX/1/1 http://www.topografix.com/GPX/1/1/gpx.xsd" version="1.1" creator="VisuGPX - https://www.visugpx.com">
  <metadata>
    <name>HALF SWIMRUNMAN VERDON MERIT RACE</name>
  </metadata>
  <trk>
    <name><![CDATA[11204475-HALF SWIMRUNMAN VERDON VF]]></name>
    <trkseg>
      <trkpt lat="43.77398" lon="6.20855">
        <ele>511</ele>
        <time>2020-04-15T13:47:58Z</time>
      </trkpt>
      <trkpt lat="43.77385" lon="6.20897">
        <ele>512</ele>
        <time>2020-04-15T13:48:24Z</time>
      </trkpt>
      <trkpt lat="43.77408" lon="6.20905">
        <ele>513</ele>
        <time>2020-04-15T13:48:43Z</time>
      </trkpt>
      <trkpt lat="43.77393" lon="6.20949">
        <ele>513</ele>
        <time>2020-04-15T13:49:12Z</time>
      </trkpt>
      <trkpt lat="43.77375" lon="6.20987">
        <ele>513</ele>
        <time>2020-04-15T13:49:38Z</time>
      </trkpt>
      <trkpt lat="43.77349" lon="6.20969">
        <ele>512</ele>
        <time>2020-04-15T13:50:01Z</time>
      </trkpt>
      <trkpt lat="43.7732" lon="6.20953">
        <ele>510</ele>
        <time>2020-04-15T13:50:26Z</time>
      </trkpt>
      <trkpt lat="43.77278" lon="6.20937">
        <ele>506</ele>
        <time>2020-04-15T13:51:01Z</time>
      </trkpt>
      <trkpt lat="43.77244" lon="6.20953">
        <ele>503</ele>
        <time>2020-04-15T13:51:30Z</time>
      </trkpt>
      <trkpt lat="43.77219" lon="6.20991">
        <ele>498</ele>
        <time>2020-04-15T13:51:59Z</time>
      </trkpt>
      <trkpt lat="43.77197" lon="6.21056">
        <ele>497</ele>
        <time>2020-04-15T13:52:41Z</time>
      </trkpt>
      <trkpt lat="43.77185" lon="6.21148">
        <ele>499</ele>
        <time>2020-04-15T13:53:35Z</time>
      </trkpt>
      <trkpt lat="43.77166" lon="6.2122">
        <ele>499</ele>
        <time>2020-04-15T13:54:19Z</time>
      </trkpt>
      <trkpt lat="43.77143" lon="6.21261">
        <ele>498</ele>
        <time>2020-04-15T13:54:49Z</time>
      </trkpt>
      <trkpt lat="43.77121" lon="6.21248">
        <ele>497</ele>
        <time>2020-04-15T13:55:08Z</time>
      </trkpt>
      <trkpt lat="43.77112" lon="6.21054">
        <ele>496</ele>
        <time>2020-04-15T13:57:01Z</time>
      </trkpt>
      <trkpt lat="43.77101" lon="6.20947">
        <ele>486</ele>
        <time>2020-04-15T13:58:03Z</time>
      </trkpt>
      <trkpt lat="43.77116" lon="6.20916">
        <ele>484</ele>
        <time>2020-04-15T13:58:25Z</time>
      </trkpt>
      <trkpt lat="43.77134" lon="6.20891">
        <ele>485</ele>
        <time>2020-04-15T13:58:45Z</time>
      </trkpt>
      <trkpt lat="43.77143" lon="6.20868">
        <ele>487</ele>
        <time>2020-04-15T13:59:00Z</time>
      </trkpt>
      <trkpt lat="43.77132" lon="6.20743">
        <ele>483</ele>
        <time>2020-04-15T14:00:13Z</time>
      </trkpt>
      <trkpt lat="43.77161" lon="6.20608">
        <ele>479</ele>
        <time>2020-04-15T14:01:35Z</time>
      </trkpt>
      <trkpt lat="43.7719" lon="6.20587">
        <ele>479</ele>
        <time>2020-04-15T14:02:01Z</time>
      </trkpt>
      <trkpt lat="43.77212" lon="6.20551">
        <ele>478</ele>
        <time>2020-04-15T14:02:28Z</time>
      </trkpt>
      <trkpt lat="43.7724" lon="6.20528">
        <ele>478</ele>
        <time>2020-04-15T14:02:54Z</time>
      </trkpt>
      <trkpt lat="43.7727" lon="6.20544">
        <ele>480</ele>
        <time>2020-04-15T14:03:20Z</time>
      </trkpt>
      <trkpt lat="43.77322" lon="6.20577">
        <ele>483</ele>
        <time>2020-04-15T14:04:06Z</time>
      </trkpt>
      <trkpt lat="43.77537" lon="6.20677">
        <ele>484</ele>
        <time>2020-04-15T14:07:07Z</time>
      </trkpt>
      <trkpt lat="43.77557" lon="6.20698">
        <ele>485</ele>
        <time>2020-04-15T14:07:27Z</time>
      </trkpt>
      <trkpt lat="43.77597" lon="6.20659">
        <ele>481</ele>
        <time>2020-04-15T14:08:07Z</time>
      </trkpt>
      <trkpt lat="43.77628" lon="6.20638">
        <ele>476</ele>
        <time>2020-04-15T14:08:34Z</time>
      </trkpt>
      <trkpt lat="43.77686" lon="6.20537">
        <ele>470</ele>
        <time>2020-04-15T14:09:49Z</time>
      </trkpt>
      <trkpt lat="43.77742" lon="6.20412">
        <ele>470</ele>
        <time>2020-04-15T14:11:14Z</time>
      </trkpt>
      <trkpt lat="43.77804" lon="6.20296">
        <ele>470</ele>
        <time>2020-04-15T14:12:37Z</time>
      </trkpt>
      <trkpt lat="43.77859" lon="6.20185">
        <ele>470</ele>
        <time>2020-04-15T14:13:55Z</time>
      </trkpt>
      <trkpt lat="43.77921" lon="6.20073">
        <ele>470</ele>
        <time>2020-04-15T14:15:17Z</time>
      </trkpt>
      <trkpt lat="43.77986" lon="6.19949">
        <ele>470</ele>
        <time>2020-04-15T14:16:45Z</time>
      </trkpt>
      <trkpt lat="43.78051" lon="6.19786">
        <ele>470</ele>
        <time>2020-04-15T14:18:33Z</time>
      </trkpt>
      <trkpt lat="43.78113" lon="6.19592">
        <ele>470</ele>
        <time>2020-04-15T14:20:36Z</time>
      </trkpt>
      <trkpt lat="43.78175" lon="6.19442">
        <ele>470</ele>
        <time>2020-04-15T14:22:16Z</time>
      </trkpt>
      <trkpt lat="43.78402" lon="6.19035">
        <ele>470</ele>
        <time>2020-04-15T14:27:13Z</time>
      </trkpt>
      <trkpt lat="43.78471" lon="6.18935">
        <ele>475</ele>
        <time>2020-04-15T14:28:33Z</time>
      </trkpt>
      <trkpt lat="43.78548" lon="6.1892">
        <ele>480</ele>
        <time>2020-04-15T14:29:35Z</time>
      </trkpt>
      <trkpt lat="43.78617" lon="6.18911">
        <ele>488</ele>
        <time>2020-04-15T14:30:31Z</time>
      </trkpt>
      <trkpt lat="43.78703" lon="6.18946">
        <ele>493</ele>
        <time>2020-04-15T14:31:42Z</time>
      </trkpt>
      <trkpt lat="43.78768" lon="6.18989">
        <ele>496</ele>
        <time>2020-04-15T14:32:40Z</time>
      </trkpt>
      <trkpt lat="43.78816" lon="6.19004">
        <ele>501</ele>
        <time>2020-04-15T14:33:19Z</time>
      </trkpt>
      <trkpt lat="43.78882" lon="6.18974">
        <ele>520</ele>
        <time>2020-04-15T14:34:15Z</time>
      </trkpt>
      <trkpt lat="43.78933" lon="6.18957">
        <ele>540</ele>
        <time>2020-04-15T14:34:57Z</time>
      </trkpt>
      <trkpt lat="43.78988" lon="6.18982">
        <ele>553</ele>
        <time>2020-04-15T14:35:43Z</time>
      </trkpt>
      <trkpt lat="43.7905" lon="6.18952">
        <ele>581</ele>
        <time>2020-04-15T14:36:36Z</time>
      </trkpt>
      <trkpt lat="43.79112" lon="6.18926">
        <ele>595</ele>
        <time>2020-04-15T14:37:28Z</time>
      </trkpt>
      <trkpt lat="43.79173" lon="6.18914">
        <ele>604</ele>
        <time>2020-04-15T14:38:17Z</time>
      </trkpt>
      <trkpt lat="43.79249" lon="6.18892">
        <ele>630</ele>
        <time>2020-04-15T14:39:19Z</time>
      </trkpt>
      <trkpt lat="43.7929" lon="6.18926">
        <ele>634</ele>
        <time>2020-04-15T14:39:58Z</time>
      </trkpt>
      <trkpt lat="43.79357" lon="6.18954">
        <ele>652</ele>
        <time>2020-04-15T14:40:54Z</time>
      </trkpt>
      <trkpt lat="43.79383" lon="6.18984">
        <ele>659</ele>
        <time>2020-04-15T14:41:21Z</time>
      </trkpt>
      <trkpt lat="43.79369" lon="6.18914">
        <ele>653</ele>
        <time>2020-04-15T14:42:03Z</time>
      </trkpt>
      <trkpt lat="43.79345" lon="6.18847">
        <ele>658</ele>
        <time>2020-04-15T14:42:46Z</time>
      </trkpt>
      <trkpt lat="43.79301" lon="6.18802">
        <ele>662</ele>
        <time>2020-04-15T14:43:30Z</time>
      </trkpt>
      <trkpt lat="43.79267" lon="6.18748">
        <ele>672</ele>
        <time>2020-04-15T14:44:11Z</time>
      </trkpt>
      <trkpt lat="43.79211" lon="6.18723">
        <ele>674</ele>
        <time>2020-04-15T14:44:58Z</time>
      </trkpt>
      <trkpt lat="43.79188" lon="6.18686">
        <ele>681</ele>
        <time>2020-04-15T14:45:26Z</time>
      </trkpt>
      <trkpt lat="43.79232" lon="6.18689">
        <ele>681</ele>
        <time>2020-04-15T14:46:02Z</time>
      </trkpt>
      <trkpt lat="43.79274" lon="6.18698">
        <ele>681</ele>
        <time>2020-04-15T14:46:36Z</time>
      </trkpt>
      <trkpt lat="43.79339" lon="6.18727">
        <ele>684</ele>
        <time>2020-04-15T14:47:30Z</time>
      </trkpt>
      <trkpt lat="43.79381" lon="6.18754">
        <ele>684</ele>
        <time>2020-04-15T14:48:08Z</time>
      </trkpt>
      <trkpt lat="43.79452" lon="6.18843">
        <ele>683</ele>
        <time>2020-04-15T14:49:24Z</time>
      </trkpt>
      <trkpt lat="43.79482" lon="6.18893">
        <ele>685</ele>
        <time>2020-04-15T14:50:02Z</time>
      </trkpt>
      <trkpt lat="43.79475" lon="6.18951">
        <ele>680</ele>
        <time>2020-04-15T14:50:36Z</time>
      </trkpt>
      <trkpt lat="43.79505" lon="6.18983">
        <ele>685</ele>
        <time>2020-04-15T14:51:06Z</time>
      </trkpt>
      <trkpt lat="43.79541" lon="6.19014">
        <ele>687</ele>
        <time>2020-04-15T14:51:40Z</time>
      </trkpt>
      <trkpt lat="43.7957" lon="6.19056">
        <ele>689</ele>
        <time>2020-04-15T14:52:14Z</time>
      </trkpt>
      <trkpt lat="43.79593" lon="6.19104">
        <ele>690</ele>
        <time>2020-04-15T14:52:47Z</time>
      </trkpt>
      <trkpt lat="43.7962" lon="6.19152">
        <ele>693</ele>
        <time>2020-04-15T14:53:22Z</time>
      </trkpt>
      <trkpt lat="43.79633" lon="6.19189">
        <ele>696</ele>
        <time>2020-04-15T14:53:46Z</time>
      </trkpt>
      <trkpt lat="43.79632" lon="6.19245">
        <ele>698</ele>
        <time>2020-04-15T14:54:18Z</time>
      </trkpt>
      <trkpt lat="43.79652" lon="6.19278">
        <ele>698</ele>
        <time>2020-04-15T14:54:43Z</time>
      </trkpt>
      <trkpt lat="43.79684" lon="6.19284">
        <ele>699</ele>
        <time>2020-04-15T14:55:09Z</time>
      </trkpt>
      <trkpt lat="43.79706" lon="6.19348">
        <ele>700</ele>
        <time>2020-04-15T14:55:50Z</time>
      </trkpt>
      <trkpt lat="43.79657" lon="6.19446">
        <ele>695</ele>
        <time>2020-04-15T14:56:59Z</time>
      </trkpt>
      <trkpt lat="43.79673" lon="6.19489">
        <ele>698</ele>
        <time>2020-04-15T14:57:27Z</time>
      </trkpt>
      <trkpt lat="43.797" lon="6.19516">
        <ele>699</ele>
        <time>2020-04-15T14:57:53Z</time>
      </trkpt>
      <trkpt lat="43.79723" lon="6.19559">
        <ele>698</ele>
        <time>2020-04-15T14:58:24Z</time>
      </trkpt>
      <trkpt lat="43.79761" lon="6.19594">
        <ele>702</ele>
        <time>2020-04-15T14:59:01Z</time>
      </trkpt>
      <trkpt lat="43.79785" lon="6.1963">
        <ele>700</ele>
        <time>2020-04-15T14:59:29Z</time>
      </trkpt>
      <trkpt lat="43.79818" lon="6.19663">
        <ele>702</ele>
        <time>2020-04-15T15:00:02Z</time>
      </trkpt>
      <trkpt lat="43.79832" lon="6.19727">
        <ele>698</ele>
        <time>2020-04-15T15:00:40Z</time>
      </trkpt>
      <trkpt lat="43.79888" lon="6.19873">
        <ele>706</ele>
        <time>2020-04-15T15:02:16Z</time>
      </trkpt>
      <trkpt lat="43.79917" lon="6.19916">
        <ele>716</ele>
        <time>2020-04-15T15:02:50Z</time>
      </trkpt>
      <trkpt lat="43.79948" lon="6.19936">
        <ele>716</ele>
        <time>2020-04-15T15:03:17Z</time>
      </trkpt>
      <trkpt lat="43.79965" lon="6.1998">
        <ele>716</ele>
        <time>2020-04-15T15:03:46Z</time>
      </trkpt>
      <trkpt lat="43.79994" lon="6.20005">
        <ele>718</ele>
        <time>2020-04-15T15:04:14Z</time>
      </trkpt>
      <trkpt lat="43.79999" lon="6.20062">
        <ele>714</ele>
        <time>2020-04-15T15:04:47Z</time>
      </trkpt>
      <trkpt lat="43.80011" lon="6.20099">
        <ele>712</ele>
        <time>2020-04-15T15:05:10Z</time>
      </trkpt>
      <trkpt lat="43.80019" lon="6.20157">
        <ele>711</ele>
        <time>2020-04-15T15:05:44Z</time>
      </trkpt>
      <trkpt lat="43.80055" lon="6.20177">
        <ele>713</ele>
        <time>2020-04-15T15:06:15Z</time>
      </trkpt>
      <trkpt lat="43.80085" lon="6.20188">
        <ele>716</ele>
        <time>2020-04-15T15:06:40Z</time>
      </trkpt>
      <trkpt lat="43.80115" lon="6.20169">
        <ele>719</ele>
        <time>2020-04-15T15:07:07Z</time>
      </trkpt>
      <trkpt lat="43.80144" lon="6.20194">
        <ele>717</ele>
        <time>2020-04-15T15:07:34Z</time>
      </trkpt>
      <trkpt lat="43.80184" lon="6.20199">
        <ele>719</ele>
        <time>2020-04-15T15:08:06Z</time>
      </trkpt>
      <trkpt lat="43.80216" lon="6.20217">
        <ele>719</ele>
        <time>2020-04-15T15:08:34Z</time>
      </trkpt>
      <trkpt lat="43.8024" lon="6.20271">
        <ele>718</ele>
        <time>2020-04-15T15:09:10Z</time>
      </trkpt>
      <trkpt lat="43.80255" lon="6.20324">
        <ele>714</ele>
        <time>2020-04-15T15:09:43Z</time>
      </trkpt>
      <trkpt lat="43.80287" lon="6.20309">
        <ele>714</ele>
        <time>2020-04-15T15:10:10Z</time>
      </trkpt>
      <trkpt lat="43.80318" lon="6.20263">
        <ele>720</ele>
        <time>2020-04-15T15:10:47Z</time>
      </trkpt>
      <trkpt lat="43.80351" lon="6.2022">
        <ele>720</ele>
        <time>2020-04-15T15:11:23Z</time>
      </trkpt>
      <trkpt lat="43.80373" lon="6.20182">
        <ele>722</ele>
        <time>2020-04-15T15:11:51Z</time>
      </trkpt>
      <trkpt lat="43.80419" lon="6.20157">
        <ele>724</ele>
        <time>2020-04-15T15:12:31Z</time>
      </trkpt>
      <trkpt lat="43.80469" lon="6.20123">
        <ele>723</ele>
        <time>2020-04-15T15:13:15Z</time>
      </trkpt>
      <trkpt lat="43.80518" lon="6.20117">
        <ele>723</ele>
        <time>2020-04-15T15:13:55Z</time>
      </trkpt>
      <trkpt lat="43.8057" lon="6.20119">
        <ele>721</ele>
        <time>2020-04-15T15:14:36Z</time>
      </trkpt>
      <trkpt lat="43.80602" lon="6.20145">
        <ele>713</ele>
        <time>2020-04-15T15:15:06Z</time>
      </trkpt>
      <trkpt lat="43.80627" lon="6.2011">
        <ele>720</ele>
        <time>2020-04-15T15:15:35Z</time>
      </trkpt>
      <trkpt lat="43.80652" lon="6.20047">
        <ele>728</ele>
        <time>2020-04-15T15:16:16Z</time>
      </trkpt>
      <trkpt lat="43.8069" lon="6.20014">
        <ele>730</ele>
        <time>2020-04-15T15:16:52Z</time>
      </trkpt>
      <trkpt lat="43.80734" lon="6.19996">
        <ele>731</ele>
        <time>2020-04-15T15:17:29Z</time>
      </trkpt>
      <trkpt lat="43.80773" lon="6.19984">
        <ele>732</ele>
        <time>2020-04-15T15:18:01Z</time>
      </trkpt>
      <trkpt lat="43.8081" lon="6.19989">
        <ele>733</ele>
        <time>2020-04-15T15:18:31Z</time>
      </trkpt>
      <trkpt lat="43.80834" lon="6.19995">
        <ele>734</ele>
        <time>2020-04-15T15:18:50Z</time>
      </trkpt>
      <trkpt lat="43.80861" lon="6.20006">
        <ele>734</ele>
        <time>2020-04-15T15:19:13Z</time>
      </trkpt>
      <trkpt lat="43.80904" lon="6.20006">
        <ele>736</ele>
        <time>2020-04-15T15:19:47Z</time>
      </trkpt>
      <trkpt lat="43.80947" lon="6.19999">
        <ele>739</ele>
        <time>2020-04-15T15:20:22Z</time>
      </trkpt>
      <trkpt lat="43.8101" lon="6.19999">
        <ele>740</ele>
        <time>2020-04-15T15:21:12Z</time>
      </trkpt>
      <trkpt lat="43.81062" lon="6.20006">
        <ele>742</ele>
        <time>2020-04-15T15:21:54Z</time>
      </trkpt>
      <trkpt lat="43.81102" lon="6.20062">
        <ele>739</ele>
        <time>2020-04-15T15:22:39Z</time>
      </trkpt>
      <trkpt lat="43.81184" lon="6.20145">
        <ele>744</ele>
        <time>2020-04-15T15:24:01Z</time>
      </trkpt>
      <trkpt lat="43.81257" lon="6.20167">
        <ele>745</ele>
        <time>2020-04-15T15:25:01Z</time>
      </trkpt>
      <trkpt lat="43.81314" lon="6.20213">
        <ele>744</ele>
        <time>2020-04-15T15:25:53Z</time>
      </trkpt>
      <trkpt lat="43.81379" lon="6.20261">
        <ele>752</ele>
        <time>2020-04-15T15:26:52Z</time>
      </trkpt>
      <trkpt lat="43.8146" lon="6.20312">
        <ele>760</ele>
        <time>2020-04-15T15:28:04Z</time>
      </trkpt>
      <trkpt lat="43.81484" lon="6.204">
        <ele>758</ele>
        <time>2020-04-15T15:28:58Z</time>
      </trkpt>
      <trkpt lat="43.81433" lon="6.20446">
        <ele>750</ele>
        <time>2020-04-15T15:29:47Z</time>
      </trkpt>
      <trkpt lat="43.81464" lon="6.20519">
        <ele>735</ele>
        <time>2020-04-15T15:30:36Z</time>
      </trkpt>
      <trkpt lat="43.81482" lon="6.20617">
        <ele>717</ele>
        <time>2020-04-15T15:31:34Z</time>
      </trkpt>
      <trkpt lat="43.8146" lon="6.20603">
        <ele>720</ele>
        <time>2020-04-15T15:31:53Z</time>
      </trkpt>
      <trkpt lat="43.81472" lon="6.20633">
        <ele>715</ele>
        <time>2020-04-15T15:32:13Z</time>
      </trkpt>
      <trkpt lat="43.815" lon="6.20663">
        <ele>713</ele>
        <time>2020-04-15T15:32:42Z</time>
      </trkpt>
      <trkpt lat="43.81434" lon="6.20656">
        <ele>706</ele>
        <time>2020-04-15T15:33:35Z</time>
      </trkpt>
      <trkpt lat="43.81484" lon="6.20702">
        <ele>699</ele>
        <time>2020-04-15T15:34:23Z</time>
      </trkpt>
      <trkpt lat="43.81529" lon="6.2072">
        <ele>692</ele>
        <time>2020-04-15T15:35:00Z</time>
      </trkpt>
      <trkpt lat="43.81517" lon="6.20742">
        <ele>686</ele>
        <time>2020-04-15T15:35:16Z</time>
      </trkpt>
      <trkpt lat="43.81466" lon="6.20728">
        <ele>690</ele>
        <time>2020-04-15T15:35:58Z</time>
      </trkpt>
      <trkpt lat="43.81443" lon="6.20717">
        <ele>691</ele>
        <time>2020-04-15T15:36:17Z</time>
      </trkpt>
      <trkpt lat="43.81391" lon="6.20735">
        <ele>677</ele>
        <time>2020-04-15T15:37:00Z</time>
      </trkpt>
      <trkpt lat="43.81382" lon="6.20755">
        <ele>669</ele>
        <time>2020-04-15T15:37:14Z</time>
      </trkpt>
      <trkpt lat="43.81406" lon="6.20799">
        <ele>669</ele>
        <time>2020-04-15T15:37:46Z</time>
      </trkpt>
      <trkpt lat="43.81379" lon="6.20805">
        <ele>663</ele>
        <time>2020-04-15T15:38:07Z</time>
      </trkpt>
      <trkpt lat="43.81407" lon="6.20831">
        <ele>665</ele>
        <time>2020-04-15T15:38:34Z</time>
      </trkpt>
      <trkpt lat="43.81405" lon="6.2085">
        <ele>660</ele>
        <time>2020-04-15T15:38:46Z</time>
      </trkpt>
      <trkpt lat="43.81349" lon="6.20868">
        <ele>648</ele>
        <time>2020-04-15T15:39:32Z</time>
      </trkpt>
      <trkpt lat="43.81329" lon="6.20829">
        <ele>650</ele>
        <time>2020-04-15T15:39:59Z</time>
      </trkpt>
      <trkpt lat="43.81314" lon="6.20832">
        <ele>647</ele>
        <time>2020-04-15T15:40:11Z</time>
      </trkpt>
      <trkpt lat="43.81319" lon="6.20941">
        <ele>632</ele>
        <time>2020-04-15T15:41:14Z</time>
      </trkpt>
      <trkpt lat="43.8134" lon="6.20997">
        <ele>622</ele>
        <time>2020-04-15T15:41:51Z</time>
      </trkpt>
      <trkpt lat="43.81309" lon="6.20994">
        <ele>621</ele>
        <time>2020-04-15T15:42:16Z</time>
      </trkpt>
      <trkpt lat="43.81274" lon="6.21008">
        <ele>616</ele>
        <time>2020-04-15T15:42:45Z</time>
      </trkpt>
      <trkpt lat="43.81211" lon="6.2111">
        <ele>597</ele>
        <time>2020-04-15T15:44:03Z</time>
      </trkpt>
      <trkpt lat="43.81219" lon="6.21169">
        <ele>591</ele>
        <time>2020-04-15T15:44:37Z</time>
      </trkpt>
      <trkpt lat="43.812" lon="6.2121">
        <ele>585</ele>
        <time>2020-04-15T15:45:05Z</time>
      </trkpt>
      <trkpt lat="43.8117" lon="6.21239">
        <ele>580</ele>
        <time>2020-04-15T15:45:35Z</time>
      </trkpt>
      <trkpt lat="43.81213" lon="6.21263">
        <ele>579</ele>
        <time>2020-04-15T15:46:12Z</time>
      </trkpt>
      <trkpt lat="43.81207" lon="6.21303">
        <ele>573</ele>
        <time>2020-04-15T15:46:35Z</time>
      </trkpt>
      <trkpt lat="43.81234" lon="6.21298">
        <ele>575</ele>
        <time>2020-04-15T15:46:57Z</time>
      </trkpt>
      <trkpt lat="43.81266" lon="6.21447">
        <ele>559</ele>
        <time>2020-04-15T15:48:27Z</time>
      </trkpt>
      <trkpt lat="43.81247" lon="6.21491">
        <ele>553</ele>
        <time>2020-04-15T15:48:57Z</time>
      </trkpt>
      <trkpt lat="43.81215" lon="6.21517">
        <ele>551</ele>
        <time>2020-04-15T15:49:26Z</time>
      </trkpt>
      <trkpt lat="43.81186" lon="6.21605">
        <ele>543</ele>
        <time>2020-04-15T15:50:22Z</time>
      </trkpt>
      <trkpt lat="43.81197" lon="6.21713">
        <ele>538</ele>
        <time>2020-04-15T15:51:25Z</time>
      </trkpt>
      <trkpt lat="43.81211" lon="6.21736">
        <ele>539</ele>
        <time>2020-04-15T15:51:43Z</time>
      </trkpt>
      <trkpt lat="43.81209" lon="6.21769">
        <ele>538</ele>
        <time>2020-04-15T15:52:02Z</time>
      </trkpt>
      <trkpt lat="43.81184" lon="6.21799">
        <ele>535</ele>
        <time>2020-04-15T15:52:28Z</time>
      </trkpt>
      <trkpt lat="43.81141" lon="6.21875">
        <ele>527</ele>
        <time>2020-04-15T15:53:24Z</time>
      </trkpt>
      <trkpt lat="43.81101" lon="6.21915">
        <ele>520</ele>
        <time>2020-04-15T15:54:04Z</time>
      </trkpt>
      <trkpt lat="43.81065" lon="6.22001">
        <ele>511</ele>
        <time>2020-04-15T15:55:01Z</time>
      </trkpt>
      <trkpt lat="43.81076" lon="6.22031">
        <ele>509</ele>
        <time>2020-04-15T15:55:20Z</time>
      </trkpt>
      <trkpt lat="43.81099" lon="6.22039">
        <ele>509</ele>
        <time>2020-04-15T15:55:39Z</time>
      </trkpt>
      <trkpt lat="43.81087" lon="6.22077">
        <ele>506</ele>
        <time>2020-04-15T15:56:03Z</time>
      </trkpt>
      <trkpt lat="43.81071" lon="6.22088">
        <ele>505</ele>
        <time>2020-04-15T15:56:18Z</time>
      </trkpt>
      <trkpt lat="43.81088" lon="6.22207">
        <ele>500</ele>
        <time>2020-04-15T15:57:28Z</time>
      </trkpt>
      <trkpt lat="43.81116" lon="6.22259">
        <ele>496</ele>
        <time>2020-04-15T15:58:05Z</time>
      </trkpt>
      <trkpt lat="43.80907" lon="6.22311">
        <ele>491</ele>
        <time>2020-04-15T16:00:55Z</time>
      </trkpt>
      <trkpt lat="43.8084" lon="6.22321">
        <ele>488</ele>
        <time>2020-04-15T16:01:49Z</time>
      </trkpt>
      <trkpt lat="43.80798" lon="6.22308">
        <ele>487</ele>
        <time>2020-04-15T16:02:24Z</time>
      </trkpt>
      <trkpt lat="43.80779" lon="6.22376">
        <ele>480</ele>
        <time>2020-04-15T16:03:06Z</time>
      </trkpt>
      <trkpt lat="43.80626" lon="6.22304">
        <ele>479</ele>
        <time>2020-04-15T16:05:15Z</time>
      </trkpt>
      <trkpt lat="43.80542" lon="6.22208">
        <ele>479</ele>
        <time>2020-04-15T16:06:42Z</time>
      </trkpt>
      <trkpt lat="43.8051" lon="6.22164">
        <ele>478</ele>
        <time>2020-04-15T16:07:19Z</time>
      </trkpt>
      <trkpt lat="43.80484" lon="6.22114">
        <ele>477</ele>
        <time>2020-04-15T16:07:54Z</time>
      </trkpt>
      <trkpt lat="43.8039" lon="6.22147">
        <ele>472</ele>
        <time>2020-04-15T16:09:12Z</time>
      </trkpt>
      <trkpt lat="43.80329" lon="6.22182">
        <ele>470</ele>
        <time>2020-04-15T16:10:05Z</time>
      </trkpt>
      <trkpt lat="43.80262" lon="6.22216">
        <ele>470</ele>
        <time>2020-04-15T16:11:02Z</time>
      </trkpt>
      <trkpt lat="43.80151" lon="6.22279">
        <ele>470</ele>
        <time>2020-04-15T16:12:38Z</time>
      </trkpt>
      <trkpt lat="43.8" lon="6.2237">
        <ele>470</ele>
        <time>2020-04-15T16:14:50Z</time>
      </trkpt>
      <trkpt lat="43.79829" lon="6.22467">
        <ele>470</ele>
        <time>2020-04-15T16:17:18Z</time>
      </trkpt>
      <trkpt lat="43.79741" lon="6.22527">
        <ele>471</ele>
        <time>2020-04-15T16:18:36Z</time>
      </trkpt>
      <trkpt lat="43.7967" lon="6.22572">
        <ele>475</ele>
        <time>2020-04-15T16:19:39Z</time>
      </trkpt>
      <trkpt lat="43.79633" lon="6.2257">
        <ele>479</ele>
        <time>2020-04-15T16:20:08Z</time>
      </trkpt>
      <trkpt lat="43.79535" lon="6.22518">
        <ele>483</ele>
        <time>2020-04-15T16:21:32Z</time>
      </trkpt>
      <trkpt lat="43.79495" lon="6.22479">
        <ele>484</ele>
        <time>2020-04-15T16:22:11Z</time>
      </trkpt>
      <trkpt lat="43.79473" lon="6.2243">
        <ele>483</ele>
        <time>2020-04-15T16:22:45Z</time>
      </trkpt>
      <trkpt lat="43.79429" lon="6.22388">
        <ele>483</ele>
        <time>2020-04-15T16:23:28Z</time>
      </trkpt>
      <trkpt lat="43.79391" lon="6.22378">
        <ele>483</ele>
        <time>2020-04-15T16:23:59Z</time>
      </trkpt>
      <trkpt lat="43.79366" lon="6.22396">
        <ele>489</ele>
        <time>2020-04-15T16:24:21Z</time>
      </trkpt>
      <trkpt lat="43.79386" lon="6.22436">
        <ele>494</ele>
        <time>2020-04-15T16:24:49Z</time>
      </trkpt>
      <trkpt lat="43.79378" lon="6.22478">
        <ele>501</ele>
        <time>2020-04-15T16:25:14Z</time>
      </trkpt>
      <trkpt lat="43.794" lon="6.22484">
        <ele>500</ele>
        <time>2020-04-15T16:25:32Z</time>
      </trkpt>
      <trkpt lat="43.794" lon="6.22502">
        <ele>502</ele>
        <time>2020-04-15T16:25:43Z</time>
      </trkpt>
      <trkpt lat="43.79416" lon="6.22505">
        <ele>501</ele>
        <time>2020-04-15T16:25:56Z</time>
      </trkpt>
      <trkpt lat="43.79415" lon="6.2253">
        <ele>501</ele>
        <time>2020-04-15T16:26:10Z</time>
      </trkpt>
      <trkpt lat="43.79434" lon="6.22563">
        <ele>500</ele>
        <time>2020-04-15T16:26:35Z</time>
      </trkpt>
      <trkpt lat="43.79489" lon="6.22592">
        <ele>497</ele>
        <time>2020-04-15T16:27:22Z</time>
      </trkpt>
      <trkpt lat="43.79532" lon="6.22637">
        <ele>497</ele>
        <time>2020-04-15T16:28:05Z</time>
      </trkpt>
      <trkpt lat="43.79562" lon="6.2272">
        <ele>500</ele>
        <time>2020-04-15T16:28:58Z</time>
      </trkpt>
      <trkpt lat="43.79605" lon="6.22759">
        <ele>497</ele>
        <time>2020-04-15T16:29:40Z</time>
      </trkpt>
      <trkpt lat="43.79656" lon="6.22785">
        <ele>489</ele>
        <time>2020-04-15T16:30:23Z</time>
      </trkpt>
      <trkpt lat="43.79685" lon="6.22767">
        <ele>485</ele>
        <time>2020-04-15T16:30:49Z</time>
      </trkpt>
      <trkpt lat="43.79709" lon="6.22733">
        <ele>482</ele>
        <time>2020-04-15T16:31:16Z</time>
      </trkpt>
      <trkpt lat="43.79757" lon="6.22698">
        <ele>475</ele>
        <time>2020-04-15T16:31:59Z</time>
      </trkpt>
      <trkpt lat="43.79814" lon="6.22702">
        <ele>471</ele>
        <time>2020-04-15T16:32:45Z</time>
      </trkpt>
      <trkpt lat="43.79886" lon="6.22719">
        <ele>470</ele>
        <time>2020-04-15T16:33:44Z</time>
      </trkpt>
      <trkpt lat="43.79959" lon="6.22742">
        <ele>470</ele>
        <time>2020-04-15T16:34:44Z</time>
      </trkpt>
      <trkpt lat="43.801" lon="6.2279">
        <ele>471</ele>
        <time>2020-04-15T16:36:40Z</time>
      </trkpt>
      <trkpt lat="43.8013" lon="6.22805">
        <ele>473</ele>
        <time>2020-04-15T16:37:05Z</time>
      </trkpt>
      <trkpt lat="43.80185" lon="6.22797">
        <ele>475</ele>
        <time>2020-04-15T16:37:50Z</time>
      </trkpt>
      <trkpt lat="43.80245" lon="6.22784">
        <ele>477</ele>
        <time>2020-04-15T16:38:38Z</time>
      </trkpt>
      <trkpt lat="43.80273" lon="6.22809">
        <ele>478</ele>
        <time>2020-04-15T16:39:05Z</time>
      </trkpt>
      <trkpt lat="43.80299" lon="6.22841">
        <ele>479</ele>
        <time>2020-04-15T16:39:33Z</time>
      </trkpt>
      <trkpt lat="43.80334" lon="6.22855">
        <ele>476</ele>
        <time>2020-04-15T16:40:02Z</time>
      </trkpt>
      <trkpt lat="43.80363" lon="6.22902">
        <ele>480</ele>
        <time>2020-04-15T16:40:38Z</time>
      </trkpt>
      <trkpt lat="43.80406" lon="6.22921">
        <ele>481</ele>
        <time>2020-04-15T16:41:14Z</time>
      </trkpt>
      <trkpt lat="43.80452" lon="6.2295">
        <ele>482</ele>
        <time>2020-04-15T16:41:54Z</time>
      </trkpt>
      <trkpt lat="43.80497" lon="6.22943">
        <ele>479</ele>
        <time>2020-04-15T16:42:31Z</time>
      </trkpt>
      <trkpt lat="43.80532" lon="6.22951">
        <ele>479</ele>
        <time>2020-04-15T16:42:59Z</time>
      </trkpt>
      <trkpt lat="43.80578" lon="6.22933">
        <ele>478</ele>
        <time>2020-04-15T16:43:37Z</time>
      </trkpt>
      <trkpt lat="43.8057" lon="6.23008">
        <ele>482</ele>
        <time>2020-04-15T16:44:21Z</time>
      </trkpt>
      <trkpt lat="43.80588" lon="6.23068">
        <ele>484</ele>
        <time>2020-04-15T16:44:59Z</time>
      </trkpt>
      <trkpt lat="43.80609" lon="6.23112">
        <ele>489</ele>
        <time>2020-04-15T16:45:29Z</time>
      </trkpt>
      <trkpt lat="43.80571" lon="6.23148">
        <ele>494</ele>
        <time>2020-04-15T16:46:06Z</time>
      </trkpt>
      <trkpt lat="43.80544" lon="6.23182">
        <ele>501</ele>
        <time>2020-04-15T16:46:35Z</time>
      </trkpt>
      <trkpt lat="43.80558" lon="6.23236">
        <ele>507</ele>
        <time>2020-04-15T16:47:08Z</time>
      </trkpt>
      <trkpt lat="43.80576" lon="6.23273">
        <ele>510</ele>
        <time>2020-04-15T16:47:34Z</time>
      </trkpt>
      <trkpt lat="43.80551" lon="6.2331">
        <ele>515</ele>
        <time>2020-04-15T16:48:03Z</time>
      </trkpt>
      <trkpt lat="43.80524" lon="6.23329">
        <ele>517</ele>
        <time>2020-04-15T16:48:28Z</time>
      </trkpt>
      <trkpt lat="43.80494" lon="6.23378">
        <ele>524</ele>
        <time>2020-04-15T16:49:05Z</time>
      </trkpt>
      <trkpt lat="43.80412" lon="6.23345">
        <ele>526</ele>
        <time>2020-04-15T16:50:13Z</time>
      </trkpt>
      <trkpt lat="43.80368" lon="6.23359">
        <ele>529</ele>
        <time>2020-04-15T16:50:49Z</time>
      </trkpt>
      <trkpt lat="43.8034" lon="6.23384">
        <ele>531</ele>
        <time>2020-04-15T16:51:16Z</time>
      </trkpt>
      <trkpt lat="43.80294" lon="6.23402">
        <ele>525</ele>
        <time>2020-04-15T16:51:54Z</time>
      </trkpt>
      <trkpt lat="43.80281" lon="6.23342">
        <ele>526</ele>
        <time>2020-04-15T16:52:30Z</time>
      </trkpt>
      <trkpt lat="43.80278" lon="6.23259">
        <ele>529</ele>
        <time>2020-04-15T16:53:18Z</time>
      </trkpt>
      <trkpt lat="43.80262" lon="6.23212">
        <ele>528</ele>
        <time>2020-04-15T16:53:48Z</time>
      </trkpt>
      <trkpt lat="43.80252" lon="6.23145">
        <ele>524</ele>
        <time>2020-04-15T16:54:28Z</time>
      </trkpt>
      <trkpt lat="43.80232" lon="6.22946">
        <ele>494</ele>
        <time>2020-04-15T16:56:24Z</time>
      </trkpt>
      <trkpt lat="43.80186" lon="6.2287">
        <ele>481</ele>
        <time>2020-04-15T16:57:21Z</time>
      </trkpt>
      <trkpt lat="43.80171" lon="6.22825">
        <ele>477</ele>
        <time>2020-04-15T16:57:50Z</time>
      </trkpt>
      <trkpt lat="43.80127" lon="6.22866">
        <ele>474</ele>
        <time>2020-04-15T16:58:32Z</time>
      </trkpt>
      <trkpt lat="43.80102" lon="6.23045">
        <ele>475</ele>
        <time>2020-04-15T17:00:18Z</time>
      </trkpt>
      <trkpt lat="43.80085" lon="6.23218">
        <ele>474</ele>
        <time>2020-04-15T17:01:59Z</time>
      </trkpt>
      <trkpt lat="43.80083" lon="6.23303">
        <ele>473</ele>
        <time>2020-04-15T17:02:48Z</time>
      </trkpt>
      <trkpt lat="43.80108" lon="6.23422">
        <ele>473</ele>
        <time>2020-04-15T17:04:00Z</time>
      </trkpt>
      <trkpt lat="43.80125" lon="6.23477">
        <ele>474</ele>
        <time>2020-04-15T17:04:34Z</time>
      </trkpt>
      <trkpt lat="43.80144" lon="6.23523">
        <ele>474</ele>
        <time>2020-04-15T17:05:05Z</time>
      </trkpt>
      <trkpt lat="43.80159" lon="6.23567">
        <ele>475</ele>
        <time>2020-04-15T17:05:33Z</time>
      </trkpt>
      <trkpt lat="43.8019" lon="6.23627">
        <ele>476</ele>
        <time>2020-04-15T17:06:15Z</time>
      </trkpt>
      <trkpt lat="43.80234" lon="6.23635">
        <ele>482</ele>
        <time>2020-04-15T17:06:51Z</time>
      </trkpt>
      <trkpt lat="43.80266" lon="6.2362">
        <ele>489</ele>
        <time>2020-04-15T17:07:18Z</time>
      </trkpt>
      <trkpt lat="43.80298" lon="6.23562">
        <ele>506</ele>
        <time>2020-04-15T17:08:00Z</time>
      </trkpt>
      <trkpt lat="43.80314" lon="6.23554">
        <ele>512</ele>
        <time>2020-04-15T17:08:14Z</time>
      </trkpt>
      <trkpt lat="43.80314" lon="6.23513">
        <ele>518</ele>
        <time>2020-04-15T17:08:38Z</time>
      </trkpt>
      <trkpt lat="43.80357" lon="6.23597">
        <ele>518</ele>
        <time>2020-04-15T17:09:37Z</time>
      </trkpt>
      <trkpt lat="43.80409" lon="6.23718">
        <ele>519</ele>
        <time>2020-04-15T17:10:58Z</time>
      </trkpt>
      <trkpt lat="43.80415" lon="6.23774">
        <ele>515</ele>
        <time>2020-04-15T17:11:31Z</time>
      </trkpt>
      <trkpt lat="43.80404" lon="6.23844">
        <ele>507</ele>
        <time>2020-04-15T17:12:13Z</time>
      </trkpt>
      <trkpt lat="43.80393" lon="6.23938">
        <ele>503</ele>
        <time>2020-04-15T17:13:08Z</time>
      </trkpt>
      <trkpt lat="43.80388" lon="6.24031">
        <ele>501</ele>
        <time>2020-04-15T17:14:01Z</time>
      </trkpt>
      <trkpt lat="43.80374" lon="6.24108">
        <ele>493</ele>
        <time>2020-04-15T17:14:47Z</time>
      </trkpt>
      <trkpt lat="43.80367" lon="6.24164">
        <ele>489</ele>
        <time>2020-04-15T17:15:20Z</time>
      </trkpt>
      <trkpt lat="43.80374" lon="6.24242">
        <ele>488</ele>
        <time>2020-04-15T17:16:06Z</time>
      </trkpt>
      <trkpt lat="43.80378" lon="6.24339">
        <ele>486</ele>
        <time>2020-04-15T17:17:02Z</time>
      </trkpt>
      <trkpt lat="43.80374" lon="6.24486">
        <ele>480</ele>
        <time>2020-04-15T17:18:27Z</time>
      </trkpt>
      <trkpt lat="43.80402" lon="6.24517">
        <ele>483</ele>
        <time>2020-04-15T17:18:55Z</time>
      </trkpt>
      <trkpt lat="43.80397" lon="6.24595">
        <ele>479</ele>
        <time>2020-04-15T17:19:41Z</time>
      </trkpt>
      <trkpt lat="43.80389" lon="6.24659">
        <ele>483</ele>
        <time>2020-04-15T17:20:18Z</time>
      </trkpt>
      <trkpt lat="43.80369" lon="6.24765">
        <ele>486</ele>
        <time>2020-04-15T17:21:22Z</time>
      </trkpt>
      <trkpt lat="43.80345" lon="6.24788">
        <ele>486</ele>
        <time>2020-04-15T17:21:45Z</time>
      </trkpt>
      <trkpt lat="43.80283" lon="6.24802">
        <ele>481</ele>
        <time>2020-04-15T17:22:35Z</time>
      </trkpt>
      <trkpt lat="43.80234" lon="6.24829">
        <ele>476</ele>
        <time>2020-04-15T17:23:17Z</time>
      </trkpt>
      <trkpt lat="43.80197" lon="6.24886">
        <ele>476</ele>
        <time>2020-04-15T17:24:02Z</time>
      </trkpt>
      <trkpt lat="43.80181" lon="6.24975">
        <ele>483</ele>
        <time>2020-04-15T17:24:55Z</time>
      </trkpt>
      <trkpt lat="43.80222" lon="6.25034">
        <ele>496</ele>
        <time>2020-04-15T17:25:42Z</time>
      </trkpt>
      <trkpt lat="43.80257" lon="6.2501">
        <ele>494</ele>
        <time>2020-04-15T17:26:13Z</time>
      </trkpt>
      <trkpt lat="43.80284" lon="6.24998">
        <ele>497</ele>
        <time>2020-04-15T17:26:36Z</time>
      </trkpt>
      <trkpt lat="43.80308" lon="6.25007">
        <ele>503</ele>
        <time>2020-04-15T17:26:56Z</time>
      </trkpt>
      <trkpt lat="43.80336" lon="6.25058">
        <ele>514</ele>
        <time>2020-04-15T17:27:33Z</time>
      </trkpt>
      <trkpt lat="43.80372" lon="6.25031">
        <ele>520</ele>
        <time>2020-04-15T17:28:06Z</time>
      </trkpt>
      <trkpt lat="43.80408" lon="6.24998">
        <ele>525</ele>
        <time>2020-04-15T17:28:40Z</time>
      </trkpt>
      <trkpt lat="43.80466" lon="6.24909">
        <ele>505</ele>
        <time>2020-04-15T17:29:50Z</time>
      </trkpt>
      <trkpt lat="43.80497" lon="6.24918">
        <ele>506</ele>
        <time>2020-04-15T17:30:15Z</time>
      </trkpt>
      <trkpt lat="43.80538" lon="6.2499">
        <ele>522</ele>
        <time>2020-04-15T17:31:08Z</time>
      </trkpt>
      <trkpt lat="43.80582" lon="6.25043">
        <ele>532</ele>
        <time>2020-04-15T17:31:55Z</time>
      </trkpt>
      <trkpt lat="43.80568" lon="6.25069">
        <ele>538</ele>
        <time>2020-04-15T17:32:13Z</time>
      </trkpt>
      <trkpt lat="43.80601" lon="6.25154">
        <ele>556</ele>
        <time>2020-04-15T17:33:09Z</time>
      </trkpt>
      <trkpt lat="43.80602" lon="6.2522">
        <ele>574</ele>
        <time>2020-04-15T17:33:47Z</time>
      </trkpt>
      <trkpt lat="43.80624" lon="6.2522">
        <ele>573</ele>
        <time>2020-04-15T17:34:05Z</time>
      </trkpt>
      <trkpt lat="43.80638" lon="6.25286">
        <ele>593</ele>
        <time>2020-04-15T17:34:45Z</time>
      </trkpt>
      <trkpt lat="43.80672" lon="6.25299">
        <ele>596</ele>
        <time>2020-04-15T17:35:13Z</time>
      </trkpt>
      <trkpt lat="43.80701" lon="6.2534">
        <ele>608</ele>
        <time>2020-04-15T17:35:46Z</time>
      </trkpt>
      <trkpt lat="43.80741" lon="6.25363">
        <ele>615</ele>
        <time>2020-04-15T17:36:21Z</time>
      </trkpt>
      <trkpt lat="43.80796" lon="6.25378">
        <ele>622</ele>
        <time>2020-04-15T17:37:06Z</time>
      </trkpt>
      <trkpt lat="43.80812" lon="6.25336">
        <ele>610</ele>
        <time>2020-04-15T17:37:33Z</time>
      </trkpt>
      <trkpt lat="43.80871" lon="6.25343">
        <ele>613</ele>
        <time>2020-04-15T17:38:21Z</time>
      </trkpt>
      <trkpt lat="43.80909" lon="6.25353">
        <ele>617</ele>
        <time>2020-04-15T17:38:51Z</time>
      </trkpt>
      <trkpt lat="43.80934" lon="6.25356">
        <ele>617</ele>
        <time>2020-04-15T17:39:12Z</time>
      </trkpt>
      <trkpt lat="43.80953" lon="6.25355">
        <ele>616</ele>
        <time>2020-04-15T17:39:27Z</time>
      </trkpt>
      <trkpt lat="43.80996" lon="6.25375">
        <ele>618</ele>
        <time>2020-04-15T17:40:03Z</time>
      </trkpt>
      <trkpt lat="43.8101" lon="6.25433">
        <ele>633</ele>
        <time>2020-04-15T17:40:38Z</time>
      </trkpt>
      <trkpt lat="43.81048" lon="6.2549">
        <ele>644</ele>
        <time>2020-04-15T17:41:23Z</time>
      </trkpt>
      <trkpt lat="43.81074" lon="6.25434">
        <ele>627</ele>
        <time>2020-04-15T17:42:02Z</time>
      </trkpt>
      <trkpt lat="43.81091" lon="6.2538">
        <ele>614</ele>
        <time>2020-04-15T17:42:36Z</time>
      </trkpt>
      <trkpt lat="43.8111" lon="6.25373">
        <ele>614</ele>
        <time>2020-04-15T17:42:52Z</time>
      </trkpt>
      <trkpt lat="43.81124" lon="6.25385">
        <ele>617</ele>
        <time>2020-04-15T17:43:05Z</time>
      </trkpt>
      <trkpt lat="43.81122" lon="6.25401">
        <ele>620</ele>
        <time>2020-04-15T17:43:14Z</time>
      </trkpt>
      <trkpt lat="43.81124" lon="6.25423">
        <ele>625</ele>
        <time>2020-04-15T17:43:27Z</time>
      </trkpt>
      <trkpt lat="43.81131" lon="6.25441">
        <ele>629</ele>
        <time>2020-04-15T17:43:39Z</time>
      </trkpt>
      <trkpt lat="43.8115" lon="6.25469">
        <ele>637</ele>
        <time>2020-04-15T17:44:01Z</time>
      </trkpt>
      <trkpt lat="43.81156" lon="6.25502">
        <ele>645</ele>
        <time>2020-04-15T17:44:21Z</time>
      </trkpt>
      <trkpt lat="43.81179" lon="6.25515">
        <ele>652</ele>
        <time>2020-04-15T17:44:41Z</time>
      </trkpt>
      <trkpt lat="43.81223" lon="6.2551">
        <ele>660</ele>
        <time>2020-04-15T17:45:16Z</time>
      </trkpt>
      <trkpt lat="43.8122" lon="6.25538">
        <ele>668</ele>
        <time>2020-04-15T17:45:32Z</time>
      </trkpt>
      <trkpt lat="43.81202" lon="6.25541">
        <ele>666</ele>
        <time>2020-04-15T17:45:47Z</time>
      </trkpt>
      <trkpt lat="43.81188" lon="6.2555">
        <ele>666</ele>
        <time>2020-04-15T17:45:59Z</time>
      </trkpt>
      <trkpt lat="43.81173" lon="6.25544">
        <ele>661</ele>
        <time>2020-04-15T17:46:12Z</time>
      </trkpt>
      <trkpt lat="43.81113" lon="6.25581">
        <ele>669</ele>
        <time>2020-04-15T17:47:04Z</time>
      </trkpt>
      <trkpt lat="43.81078" lon="6.2562">
        <ele>682</ele>
        <time>2020-04-15T17:47:40Z</time>
      </trkpt>
      <trkpt lat="43.81075" lon="6.25638">
        <ele>689</ele>
        <time>2020-04-15T17:47:51Z</time>
      </trkpt>
      <trkpt lat="43.81021" lon="6.25611">
        <ele>682</ele>
        <time>2020-04-15T17:48:37Z</time>
      </trkpt>
      <trkpt lat="43.81002" lon="6.25628">
        <ele>690</ele>
        <time>2020-04-15T17:48:55Z</time>
      </trkpt>
      <trkpt lat="43.80993" lon="6.25624">
        <ele>690</ele>
        <time>2020-04-15T17:49:02Z</time>
      </trkpt>
      <trkpt lat="43.80969" lon="6.2562">
        <ele>693</ele>
        <time>2020-04-15T17:49:22Z</time>
      </trkpt>
      <trkpt lat="43.80944" lon="6.25633">
        <ele>703</ele>
        <time>2020-04-15T17:49:43Z</time>
      </trkpt>
      <trkpt lat="43.80899" lon="6.25615">
        <ele>705</ele>
        <time>2020-04-15T17:50:21Z</time>
      </trkpt>
      <trkpt lat="43.8088" lon="6.25617">
        <ele>709</ele>
        <time>2020-04-15T17:50:36Z</time>
      </trkpt>
      <trkpt lat="43.80863" lon="6.25604">
        <ele>708</ele>
        <time>2020-04-15T17:50:51Z</time>
      </trkpt>
      <trkpt lat="43.80841" lon="6.25613">
        <ele>715</ele>
        <time>2020-04-15T17:51:10Z</time>
      </trkpt>
      <trkpt lat="43.8083" lon="6.2561">
        <ele>716</ele>
        <time>2020-04-15T17:51:19Z</time>
      </trkpt>
      <trkpt lat="43.8082" lon="6.25611">
        <ele>719</ele>
        <time>2020-04-15T17:51:27Z</time>
      </trkpt>
      <trkpt lat="43.80825" lon="6.2563">
        <ele>725</ele>
        <time>2020-04-15T17:51:39Z</time>
      </trkpt>
      <trkpt lat="43.80806" lon="6.25634">
        <ele>733</ele>
        <time>2020-04-15T17:51:54Z</time>
      </trkpt>
      <trkpt lat="43.80764" lon="6.25618">
        <ele>738</ele>
        <time>2020-04-15T17:52:29Z</time>
      </trkpt>
      <trkpt lat="43.80737" lon="6.25625">
        <ele>748</ele>
        <time>2020-04-15T17:52:51Z</time>
      </trkpt>
      <trkpt lat="43.8071" lon="6.25604">
        <ele>744</ele>
        <time>2020-04-15T17:53:16Z</time>
      </trkpt>
      <trkpt lat="43.80692" lon="6.25609">
        <ele>751</ele>
        <time>2020-04-15T17:53:30Z</time>
      </trkpt>
      <trkpt lat="43.80674" lon="6.25619">
        <ele>761</ele>
        <time>2020-04-15T17:53:46Z</time>
      </trkpt>
      <trkpt lat="43.80653" lon="6.25609">
        <ele>759</ele>
        <time>2020-04-15T17:54:04Z</time>
      </trkpt>
      <trkpt lat="43.80619" lon="6.25616">
        <ele>768</ele>
        <time>2020-04-15T17:54:31Z</time>
      </trkpt>
      <trkpt lat="43.80595" lon="6.2561">
        <ele>769</ele>
        <time>2020-04-15T17:54:51Z</time>
      </trkpt>
      <trkpt lat="43.80583" lon="6.25604">
        <ele>769</ele>
        <time>2020-04-15T17:55:01Z</time>
      </trkpt>
      <trkpt lat="43.80572" lon="6.25593">
        <ele>766</ele>
        <time>2020-04-15T17:55:12Z</time>
      </trkpt>
      <trkpt lat="43.80544" lon="6.25585">
        <ele>767</ele>
        <time>2020-04-15T17:55:35Z</time>
      </trkpt>
      <trkpt lat="43.80489" lon="6.25577">
        <ele>767</ele>
        <time>2020-04-15T17:56:19Z</time>
      </trkpt>
      <trkpt lat="43.80472" lon="6.25588">
        <ele>768</ele>
        <time>2020-04-15T17:56:34Z</time>
      </trkpt>
      <trkpt lat="43.80436" lon="6.25575">
        <ele>754</ele>
        <time>2020-04-15T17:57:04Z</time>
      </trkpt>
      <trkpt lat="43.80417" lon="6.25562">
        <ele>745</ele>
        <time>2020-04-15T17:57:21Z</time>
      </trkpt>
      <trkpt lat="43.8039" lon="6.25583">
        <ele>752</ele>
        <time>2020-04-15T17:57:45Z</time>
      </trkpt>
      <trkpt lat="43.8036" lon="6.25583">
        <ele>752</ele>
        <time>2020-04-15T17:58:09Z</time>
      </trkpt>
      <trkpt lat="43.80336" lon="6.25579">
        <ele>749</ele>
        <time>2020-04-15T17:58:29Z</time>
      </trkpt>
      <trkpt lat="43.80306" lon="6.25585">
        <ele>744</ele>
        <time>2020-04-15T17:58:53Z</time>
      </trkpt>
      <trkpt lat="43.80268" lon="6.25606">
        <ele>743</ele>
        <time>2020-04-15T17:59:26Z</time>
      </trkpt>
      <trkpt lat="43.80252" lon="6.25644">
        <ele>760</ele>
        <time>2020-04-15T17:59:51Z</time>
      </trkpt>
      <trkpt lat="43.80243" lon="6.257">
        <ele>776</ele>
        <time>2020-04-15T18:00:24Z</time>
      </trkpt>
      <trkpt lat="43.80244" lon="6.25719">
        <ele>781</ele>
        <time>2020-04-15T18:00:35Z</time>
      </trkpt>
      <trkpt lat="43.80223" lon="6.25756">
        <ele>782</ele>
        <time>2020-04-15T18:01:03Z</time>
      </trkpt>
      <trkpt lat="43.80211" lon="6.25763">
        <ele>780</ele>
        <time>2020-04-15T18:01:13Z</time>
      </trkpt>
      <trkpt lat="43.80206" lon="6.25783">
        <ele>785</ele>
        <time>2020-04-15T18:01:25Z</time>
      </trkpt>
      <trkpt lat="43.80204" lon="6.25821">
        <ele>799</ele>
        <time>2020-04-15T18:01:47Z</time>
      </trkpt>
      <trkpt lat="43.80197" lon="6.25842">
        <ele>801</ele>
        <time>2020-04-15T18:02:01Z</time>
      </trkpt>
      <trkpt lat="43.80185" lon="6.25896">
        <ele>797</ele>
        <time>2020-04-15T18:02:33Z</time>
      </trkpt>
      <trkpt lat="43.80195" lon="6.2594">
        <ele>804</ele>
        <time>2020-04-15T18:03:00Z</time>
      </trkpt>
      <trkpt lat="43.80186" lon="6.25982">
        <ele>796</ele>
        <time>2020-04-15T18:03:25Z</time>
      </trkpt>
      <trkpt lat="43.8018" lon="6.26025">
        <ele>798</ele>
        <time>2020-04-15T18:03:51Z</time>
      </trkpt>
      <trkpt lat="43.80186" lon="6.26071">
        <ele>815</ele>
        <time>2020-04-15T18:04:18Z</time>
      </trkpt>
      <trkpt lat="43.80159" lon="6.26082">
        <ele>801</ele>
        <time>2020-04-15T18:04:40Z</time>
      </trkpt>
      <trkpt lat="43.80131" lon="6.26111">
        <ele>804</ele>
        <time>2020-04-15T18:05:08Z</time>
      </trkpt>
      <trkpt lat="43.80118" lon="6.26133">
        <ele>809</ele>
        <time>2020-04-15T18:05:25Z</time>
      </trkpt>
      <trkpt lat="43.80115" lon="6.26149">
        <ele>815</ele>
        <time>2020-04-15T18:05:34Z</time>
      </trkpt>
      <trkpt lat="43.80096" lon="6.26153">
        <ele>810</ele>
        <time>2020-04-15T18:05:50Z</time>
      </trkpt>
      <trkpt lat="43.80069" lon="6.26168">
        <ele>807</ele>
        <time>2020-04-15T18:06:13Z</time>
      </trkpt>
      <trkpt lat="43.80022" lon="6.26139">
        <ele>775</ele>
        <time>2020-04-15T18:06:54Z</time>
      </trkpt>
      <trkpt lat="43.80012" lon="6.26129">
        <ele>767</ele>
        <time>2020-04-15T18:07:04Z</time>
      </trkpt>
      <trkpt lat="43.79989" lon="6.26135">
        <ele>762</ele>
        <time>2020-04-15T18:07:23Z</time>
      </trkpt>
      <trkpt lat="43.79968" lon="6.2616">
        <ele>766</ele>
        <time>2020-04-15T18:07:45Z</time>
      </trkpt>
      <trkpt lat="43.79953" lon="6.26202">
        <ele>769</ele>
        <time>2020-04-15T18:08:12Z</time>
      </trkpt>
      <trkpt lat="43.79941" lon="6.2619">
        <ele>761</ele>
        <time>2020-04-15T18:08:24Z</time>
      </trkpt>
      <trkpt lat="43.79924" lon="6.2624">
        <ele>758</ele>
        <time>2020-04-15T18:08:56Z</time>
      </trkpt>
      <trkpt lat="43.79932" lon="6.2626">
        <ele>765</ele>
        <time>2020-04-15T18:09:09Z</time>
      </trkpt>
      <trkpt lat="43.79948" lon="6.26268">
        <ele>776</ele>
        <time>2020-04-15T18:09:22Z</time>
      </trkpt>
      <trkpt lat="43.79959" lon="6.26282">
        <ele>784</ele>
        <time>2020-04-15T18:09:34Z</time>
      </trkpt>
      <trkpt lat="43.79961" lon="6.26294">
        <ele>786</ele>
        <time>2020-04-15T18:09:42Z</time>
      </trkpt>
      <trkpt lat="43.79956" lon="6.26305">
        <ele>784</ele>
        <time>2020-04-15T18:09:49Z</time>
      </trkpt>
      <trkpt lat="43.79956" lon="6.2633">
        <ele>787</ele>
        <time>2020-04-15T18:10:04Z</time>
      </trkpt>
      <trkpt lat="43.79973" lon="6.26336">
        <ele>799</ele>
        <time>2020-04-15T18:10:18Z</time>
      </trkpt>
      <trkpt lat="43.79983" lon="6.26321">
        <ele>801</ele>
        <time>2020-04-15T18:10:29Z</time>
      </trkpt>
      <trkpt lat="43.79996" lon="6.26336">
        <ele>811</ele>
        <time>2020-04-15T18:10:43Z</time>
      </trkpt>
      <trkpt lat="43.80021" lon="6.26315">
        <ele>821</ele>
        <time>2020-04-15T18:11:06Z</time>
      </trkpt>
      <trkpt lat="43.80024" lon="6.2634">
        <ele>828</ele>
        <time>2020-04-15T18:11:21Z</time>
      </trkpt>
      <trkpt lat="43.80044" lon="6.26335">
        <ele>835</ele>
        <time>2020-04-15T18:11:37Z</time>
      </trkpt>
      <trkpt lat="43.80077" lon="6.26315">
        <ele>850</ele>
        <time>2020-04-15T18:12:06Z</time>
      </trkpt>
      <trkpt lat="43.80095" lon="6.26314">
        <ele>859</ele>
        <time>2020-04-15T18:12:21Z</time>
      </trkpt>
      <trkpt lat="43.80107" lon="6.26321">
        <ele>866</ele>
        <time>2020-04-15T18:12:31Z</time>
      </trkpt>
      <trkpt lat="43.80119" lon="6.26306">
        <ele>871</ele>
        <time>2020-04-15T18:12:44Z</time>
      </trkpt>
      <trkpt lat="43.80114" lon="6.26286">
        <ele>866</ele>
        <time>2020-04-15T18:12:56Z</time>
      </trkpt>
      <trkpt lat="43.80148" lon="6.26296">
        <ele>883</ele>
        <time>2020-04-15T18:13:24Z</time>
      </trkpt>
      <trkpt lat="43.80149" lon="6.26329">
        <ele>890</ele>
        <time>2020-04-15T18:13:43Z</time>
      </trkpt>
      <trkpt lat="43.80164" lon="6.26322">
        <ele>896</ele>
        <time>2020-04-15T18:13:56Z</time>
      </trkpt>
      <trkpt lat="43.80175" lon="6.26305">
        <ele>900</ele>
        <time>2020-04-15T18:14:09Z</time>
      </trkpt>
      <trkpt lat="43.80181" lon="6.26326">
        <ele>909</ele>
        <time>2020-04-15T18:14:22Z</time>
      </trkpt>
      <trkpt lat="43.80178" lon="6.26348">
        <ele>913</ele>
        <time>2020-04-15T18:14:35Z</time>
      </trkpt>
      <trkpt lat="43.80166" lon="6.26384">
        <ele>915</ele>
        <time>2020-04-15T18:14:58Z</time>
      </trkpt>
      <trkpt lat="43.80187" lon="6.26372">
        <ele>926</ele>
        <time>2020-04-15T18:15:16Z</time>
      </trkpt>
      <trkpt lat="43.80201" lon="6.26359">
        <ele>932</ele>
        <time>2020-04-15T18:15:29Z</time>
      </trkpt>
      <trkpt lat="43.80218" lon="6.26326">
        <ele>937</ele>
        <time>2020-04-15T18:15:53Z</time>
      </trkpt>
      <trkpt lat="43.80224" lon="6.26287">
        <ele>932</ele>
        <time>2020-04-15T18:16:16Z</time>
      </trkpt>
      <trkpt lat="43.80239" lon="6.26268">
        <ele>939</ele>
        <time>2020-04-15T18:16:32Z</time>
      </trkpt>
      <trkpt lat="43.8026" lon="6.2627">
        <ele>952</ele>
        <time>2020-04-15T18:16:49Z</time>
      </trkpt>
      <trkpt lat="43.80302" lon="6.26238">
        <ele>963</ele>
        <time>2020-04-15T18:17:27Z</time>
      </trkpt>
      <trkpt lat="43.80354" lon="6.26259">
        <ele>990</ele>
        <time>2020-04-15T18:18:11Z</time>
      </trkpt>
      <trkpt lat="43.80396" lon="6.26256">
        <ele>1003</ele>
        <time>2020-04-15T18:18:45Z</time>
      </trkpt>
      <trkpt lat="43.80418" lon="6.26247">
        <ele>1007</ele>
        <time>2020-04-15T18:19:03Z</time>
      </trkpt>
      <trkpt lat="43.8044" lon="6.26256">
        <ele>1020</ele>
        <time>2020-04-15T18:19:21Z</time>
      </trkpt>
      <trkpt lat="43.80473" lon="6.2619">
        <ele>1015</ele>
        <time>2020-04-15T18:20:08Z</time>
      </trkpt>
      <trkpt lat="43.80495" lon="6.26113">
        <ele>1022</ele>
        <time>2020-04-15T18:20:55Z</time>
      </trkpt>
      <trkpt lat="43.80519" lon="6.26085">
        <ele>1022</ele>
        <time>2020-04-15T18:21:21Z</time>
      </trkpt>
      <trkpt lat="43.80542" lon="6.2609">
        <ele>1020</ele>
        <time>2020-04-15T18:21:39Z</time>
      </trkpt>
      <trkpt lat="43.80543" lon="6.26118">
        <ele>1024</ele>
        <time>2020-04-15T18:21:55Z</time>
      </trkpt>
      <trkpt lat="43.8053" lon="6.26125">
        <ele>1025</ele>
        <time>2020-04-15T18:22:07Z</time>
      </trkpt>
      <trkpt lat="43.80539" lon="6.26189">
        <ele>1038</ele>
        <time>2020-04-15T18:22:44Z</time>
      </trkpt>
      <trkpt lat="43.80546" lon="6.26216">
        <ele>1050</ele>
        <time>2020-04-15T18:23:01Z</time>
      </trkpt>
      <trkpt lat="43.80548" lon="6.26238">
        <ele>1058</ele>
        <time>2020-04-15T18:23:14Z</time>
      </trkpt>
      <trkpt lat="43.80544" lon="6.26273">
        <ele>1070</ele>
        <time>2020-04-15T18:23:34Z</time>
      </trkpt>
      <trkpt lat="43.80536" lon="6.26292">
        <ele>1075</ele>
        <time>2020-04-15T18:23:47Z</time>
      </trkpt>
      <trkpt lat="43.8053" lon="6.26321">
        <ele>1084</ele>
        <time>2020-04-15T18:24:04Z</time>
      </trkpt>
      <trkpt lat="43.80513" lon="6.26342">
        <ele>1085</ele>
        <time>2020-04-15T18:24:23Z</time>
      </trkpt>
      <trkpt lat="43.80497" lon="6.26384">
        <ele>1095</ele>
        <time>2020-04-15T18:24:50Z</time>
      </trkpt>
      <trkpt lat="43.80504" lon="6.26397">
        <ele>1103</ele>
        <time>2020-04-15T18:24:59Z</time>
      </trkpt>
      <trkpt lat="43.80508" lon="6.26425">
        <ele>1117</ele>
        <time>2020-04-15T18:25:16Z</time>
      </trkpt>
      <trkpt lat="43.80502" lon="6.26458">
        <ele>1132</ele>
        <time>2020-04-15T18:25:36Z</time>
      </trkpt>
      <trkpt lat="43.80515" lon="6.26456">
        <ele>1135</ele>
        <time>2020-04-15T18:25:46Z</time>
      </trkpt>
      <trkpt lat="43.80518" lon="6.26471">
        <ele>1143</ele>
        <time>2020-04-15T18:25:55Z</time>
      </trkpt>
      <trkpt lat="43.80513" lon="6.2649">
        <ele>1151</ele>
        <time>2020-04-15T18:26:07Z</time>
      </trkpt>
      <trkpt lat="43.80501" lon="6.265">
        <ele>1153</ele>
        <time>2020-04-15T18:26:18Z</time>
      </trkpt>
      <trkpt lat="43.8051" lon="6.26516">
        <ele>1157</ele>
        <time>2020-04-15T18:26:30Z</time>
      </trkpt>
      <trkpt lat="43.80523" lon="6.26523">
        <ele>1161</ele>
        <time>2020-04-15T18:26:41Z</time>
      </trkpt>
      <trkpt lat="43.80513" lon="6.26546">
        <ele>1161</ele>
        <time>2020-04-15T18:26:56Z</time>
      </trkpt>
      <trkpt lat="43.80507" lon="6.26586">
        <ele>1165</ele>
        <time>2020-04-15T18:27:20Z</time>
      </trkpt>
      <trkpt lat="43.80484" lon="6.2664">
        <ele>1161</ele>
        <time>2020-04-15T18:27:56Z</time>
      </trkpt>
      <trkpt lat="43.80459" lon="6.26674">
        <ele>1165</ele>
        <time>2020-04-15T18:28:24Z</time>
      </trkpt>
      <trkpt lat="43.80432" lon="6.26678">
        <ele>1169</ele>
        <time>2020-04-15T18:28:46Z</time>
      </trkpt>
      <trkpt lat="43.80412" lon="6.26698">
        <ele>1173</ele>
        <time>2020-04-15T18:29:06Z</time>
      </trkpt>
      <trkpt lat="43.80381" lon="6.26713">
        <ele>1175</ele>
        <time>2020-04-15T18:29:32Z</time>
      </trkpt>
      <trkpt lat="43.80308" lon="6.2673">
        <ele>1184</ele>
        <time>2020-04-15T18:30:31Z</time>
      </trkpt>
      <trkpt lat="43.8028" lon="6.26756">
        <ele>1195</ele>
        <time>2020-04-15T18:30:58Z</time>
      </trkpt>
      <trkpt lat="43.8025" lon="6.26777">
        <ele>1197</ele>
        <time>2020-04-15T18:31:25Z</time>
      </trkpt>
      <trkpt lat="43.80174" lon="6.26851">
        <ele>1217</ele>
        <time>2020-04-15T18:32:39Z</time>
      </trkpt>
      <trkpt lat="43.80118" lon="6.26836">
        <ele>1220</ele>
        <time>2020-04-15T18:33:25Z</time>
      </trkpt>
      <trkpt lat="43.80075" lon="6.26841">
        <ele>1220</ele>
        <time>2020-04-15T18:34:00Z</time>
      </trkpt>
      <trkpt lat="43.80046" lon="6.26848">
        <ele>1220</ele>
        <time>2020-04-15T18:34:23Z</time>
      </trkpt>
      <trkpt lat="43.80017" lon="6.26898">
        <ele>1227</ele>
        <time>2020-04-15T18:35:00Z</time>
      </trkpt>
      <trkpt lat="43.79985" lon="6.26921">
        <ele>1232</ele>
        <time>2020-04-15T18:35:29Z</time>
      </trkpt>
      <trkpt lat="43.79941" lon="6.26938">
        <ele>1234</ele>
        <time>2020-04-15T18:36:06Z</time>
      </trkpt>
      <trkpt lat="43.79897" lon="6.2695">
        <ele>1230</ele>
        <time>2020-04-15T18:36:42Z</time>
      </trkpt>
      <trkpt lat="43.79871" lon="6.2697">
        <ele>1227</ele>
        <time>2020-04-15T18:37:06Z</time>
      </trkpt>
      <trkpt lat="43.79842" lon="6.27005">
        <ele>1233</ele>
        <time>2020-04-15T18:37:36Z</time>
      </trkpt>
      <trkpt lat="43.79805" lon="6.27037">
        <ele>1232</ele>
        <time>2020-04-15T18:38:11Z</time>
      </trkpt>
      <trkpt lat="43.7981" lon="6.27076">
        <ele>1234</ele>
        <time>2020-04-15T18:38:34Z</time>
      </trkpt>
      <trkpt lat="43.79837" lon="6.27138">
        <ele>1225</ele>
        <time>2020-04-15T18:39:16Z</time>
      </trkpt>
      <trkpt lat="43.7985" lon="6.2721">
        <ele>1218</ele>
        <time>2020-04-15T18:39:59Z</time>
      </trkpt>
      <trkpt lat="43.79833" lon="6.27281">
        <ele>1218</ele>
        <time>2020-04-15T18:40:42Z</time>
      </trkpt>
      <trkpt lat="43.79815" lon="6.27341">
        <ele>1217</ele>
        <time>2020-04-15T18:41:20Z</time>
      </trkpt>
      <trkpt lat="43.79768" lon="6.27417">
        <ele>1215</ele>
        <time>2020-04-15T18:42:17Z</time>
      </trkpt>
      <trkpt lat="43.79737" lon="6.27473">
        <ele>1214</ele>
        <time>2020-04-15T18:42:58Z</time>
      </trkpt>
      <trkpt lat="43.79709" lon="6.27495">
        <ele>1214</ele>
        <time>2020-04-15T18:43:24Z</time>
      </trkpt>
      <trkpt lat="43.79675" lon="6.27513">
        <ele>1213</ele>
        <time>2020-04-15T18:43:53Z</time>
      </trkpt>
      <trkpt lat="43.7963" lon="6.27523">
        <ele>1214</ele>
        <time>2020-04-15T18:44:30Z</time>
      </trkpt>
      <trkpt lat="43.79607" lon="6.27573">
        <ele>1211</ele>
        <time>2020-04-15T18:45:04Z</time>
      </trkpt>
      <trkpt lat="43.7958" lon="6.27617">
        <ele>1209</ele>
        <time>2020-04-15T18:45:37Z</time>
      </trkpt>
      <trkpt lat="43.7952" lon="6.27729">
        <ele>1209</ele>
        <time>2020-04-15T18:46:58Z</time>
      </trkpt>
      <trkpt lat="43.79492" lon="6.27838">
        <ele>1203</ele>
        <time>2020-04-15T18:48:05Z</time>
      </trkpt>
      <trkpt lat="43.79466" lon="6.27876">
        <ele>1203</ele>
        <time>2020-04-15T18:48:35Z</time>
      </trkpt>
      <trkpt lat="43.79462" lon="6.27946">
        <ele>1202</ele>
        <time>2020-04-15T18:49:16Z</time>
      </trkpt>
      <trkpt lat="43.7945" lon="6.28057">
        <ele>1208</ele>
        <time>2020-04-15T18:50:20Z</time>
      </trkpt>
      <trkpt lat="43.79411" lon="6.28169">
        <ele>1209</ele>
        <time>2020-04-15T18:51:32Z</time>
      </trkpt>
      <trkpt lat="43.79394" lon="6.2825">
        <ele>1206</ele>
        <time>2020-04-15T18:52:21Z</time>
      </trkpt>
      <trkpt lat="43.79387" lon="6.28329">
        <ele>1207</ele>
        <time>2020-04-15T18:53:07Z</time>
      </trkpt>
      <trkpt lat="43.79376" lon="6.28415">
        <ele>1210</ele>
        <time>2020-04-15T18:53:58Z</time>
      </trkpt>
      <trkpt lat="43.79262" lon="6.28584">
        <ele>1215</ele>
        <time>2020-04-15T18:56:11Z</time>
      </trkpt>
      <trkpt lat="43.79232" lon="6.2865">
        <ele>1215</ele>
        <time>2020-04-15T18:56:56Z</time>
      </trkpt>
      <trkpt lat="43.79209" lon="6.28687">
        <ele>1215</ele>
        <time>2020-04-15T18:57:25Z</time>
      </trkpt>
      <trkpt lat="43.79188" lon="6.28732">
        <ele>1217</ele>
        <time>2020-04-15T18:57:56Z</time>
      </trkpt>
      <trkpt lat="43.79152" lon="6.28728">
        <ele>1218</ele>
        <time>2020-04-15T18:58:24Z</time>
      </trkpt>
      <trkpt lat="43.79133" lon="6.28716">
        <ele>1219</ele>
        <time>2020-04-15T18:58:41Z</time>
      </trkpt>
      <trkpt lat="43.79007" lon="6.28816">
        <ele>1223</ele>
        <time>2020-04-15T19:00:37Z</time>
      </trkpt>
      <trkpt lat="43.78998" lon="6.28888">
        <ele>1222</ele>
        <time>2020-04-15T19:01:20Z</time>
      </trkpt>
      <trkpt lat="43.78967" lon="6.28921">
        <ele>1218</ele>
        <time>2020-04-15T19:01:51Z</time>
      </trkpt>
      <trkpt lat="43.78945" lon="6.28938">
        <ele>1216</ele>
        <time>2020-04-15T19:02:11Z</time>
      </trkpt>
      <trkpt lat="43.78941" lon="6.28973">
        <ele>1215</ele>
        <time>2020-04-15T19:02:32Z</time>
      </trkpt>
      <trkpt lat="43.78924" lon="6.29004">
        <ele>1214</ele>
        <time>2020-04-15T19:02:54Z</time>
      </trkpt>
      <trkpt lat="43.78919" lon="6.29043">
        <ele>1212</ele>
        <time>2020-04-15T19:03:17Z</time>
      </trkpt>
      <trkpt lat="43.78889" lon="6.29074">
        <ele>1208</ele>
        <time>2020-04-15T19:03:47Z</time>
      </trkpt>
      <trkpt lat="43.78876" lon="6.29113">
        <ele>1207</ele>
        <time>2020-04-15T19:04:12Z</time>
      </trkpt>
      <trkpt lat="43.78847" lon="6.29134">
        <ele>1205</ele>
        <time>2020-04-15T19:04:38Z</time>
      </trkpt>
      <trkpt lat="43.78811" lon="6.29154">
        <ele>1205</ele>
        <time>2020-04-15T19:05:09Z</time>
      </trkpt>
      <trkpt lat="43.78806" lon="6.29098">
        <ele>1203</ele>
        <time>2020-04-15T19:05:42Z</time>
      </trkpt>
      <trkpt lat="43.78792" lon="6.29064">
        <ele>1201</ele>
        <time>2020-04-15T19:06:04Z</time>
      </trkpt>
      <trkpt lat="43.78807" lon="6.2902">
        <ele>1199</ele>
        <time>2020-04-15T19:06:32Z</time>
      </trkpt>
      <trkpt lat="43.78803" lon="6.28989">
        <ele>1198</ele>
        <time>2020-04-15T19:06:51Z</time>
      </trkpt>
      <trkpt lat="43.78773" lon="6.28969">
        <ele>1194</ele>
        <time>2020-04-15T19:07:17Z</time>
      </trkpt>
      <trkpt lat="43.78752" lon="6.2895">
        <ele>1190</ele>
        <time>2020-04-15T19:07:37Z</time>
      </trkpt>
      <trkpt lat="43.7873" lon="6.28896">
        <ele>1184</ele>
        <time>2020-04-15T19:08:13Z</time>
      </trkpt>
      <trkpt lat="43.78711" lon="6.28869">
        <ele>1180</ele>
        <time>2020-04-15T19:08:35Z</time>
      </trkpt>
      <trkpt lat="43.7868" lon="6.2884">
        <ele>1173</ele>
        <time>2020-04-15T19:09:05Z</time>
      </trkpt>
      <trkpt lat="43.78661" lon="6.28789">
        <ele>1170</ele>
        <time>2020-04-15T19:09:38Z</time>
      </trkpt>
      <trkpt lat="43.78628" lon="6.28788">
        <ele>1167</ele>
        <time>2020-04-15T19:10:05Z</time>
      </trkpt>
      <trkpt lat="43.78605" lon="6.28752">
        <ele>1159</ele>
        <time>2020-04-15T19:10:32Z</time>
      </trkpt>
      <trkpt lat="43.78588" lon="6.28743">
        <ele>1154</ele>
        <time>2020-04-15T19:10:47Z</time>
      </trkpt>
      <trkpt lat="43.78583" lon="6.28724">
        <ele>1151</ele>
        <time>2020-04-15T19:10:59Z</time>
      </trkpt>
      <trkpt lat="43.78569" lon="6.28719">
        <ele>1149</ele>
        <time>2020-04-15T19:11:10Z</time>
      </trkpt>
      <trkpt lat="43.78553" lon="6.28683">
        <ele>1140</ele>
        <time>2020-04-15T19:11:35Z</time>
      </trkpt>
      <trkpt lat="43.78521" lon="6.28664">
        <ele>1128</ele>
        <time>2020-04-15T19:12:03Z</time>
      </trkpt>
      <trkpt lat="43.78467" lon="6.2859">
        <ele>1091</ele>
        <time>2020-04-15T19:13:03Z</time>
      </trkpt>
      <trkpt lat="43.78463" lon="6.28538">
        <ele>1086</ele>
        <time>2020-04-15T19:13:34Z</time>
      </trkpt>
      <trkpt lat="43.7845" lon="6.28521">
        <ele>1074</ele>
        <time>2020-04-15T19:13:48Z</time>
      </trkpt>
      <trkpt lat="43.78445" lon="6.28491">
        <ele>1068</ele>
        <time>2020-04-15T19:14:06Z</time>
      </trkpt>
      <trkpt lat="43.7842" lon="6.28479">
        <ele>1043</ele>
        <time>2020-04-15T19:14:27Z</time>
      </trkpt>
      <trkpt lat="43.78433" lon="6.28462">
        <ele>1057</ele>
        <time>2020-04-15T19:14:41Z</time>
      </trkpt>
      <trkpt lat="43.78422" lon="6.28451">
        <ele>1046</ele>
        <time>2020-04-15T19:14:52Z</time>
      </trkpt>
      <trkpt lat="43.78424" lon="6.2843">
        <ele>1048</ele>
        <time>2020-04-15T19:15:04Z</time>
      </trkpt>
      <trkpt lat="43.78412" lon="6.28437">
        <ele>1035</ele>
        <time>2020-04-15T19:15:15Z</time>
      </trkpt>
      <trkpt lat="43.78415" lon="6.28393">
        <ele>1040</ele>
        <time>2020-04-15T19:15:40Z</time>
      </trkpt>
      <trkpt lat="43.78398" lon="6.28387">
        <ele>1021</ele>
        <time>2020-04-15T19:15:54Z</time>
      </trkpt>
      <trkpt lat="43.78381" lon="6.28431">
        <ele>1003</ele>
        <time>2020-04-15T19:16:23Z</time>
      </trkpt>
      <trkpt lat="43.78353" lon="6.28464">
        <ele>977</ele>
        <time>2020-04-15T19:16:53Z</time>
      </trkpt>
      <trkpt lat="43.7835" lon="6.28498">
        <ele>977</ele>
        <time>2020-04-15T19:17:12Z</time>
      </trkpt>
      <trkpt lat="43.78342" lon="6.28519">
        <ele>974</ele>
        <time>2020-04-15T19:17:26Z</time>
      </trkpt>
      <trkpt lat="43.78331" lon="6.28497">
        <ele>961</ele>
        <time>2020-04-15T19:17:42Z</time>
      </trkpt>
      <trkpt lat="43.78328" lon="6.28543">
        <ele>970</ele>
        <time>2020-04-15T19:18:08Z</time>
      </trkpt>
      <trkpt lat="43.78304" lon="6.28545">
        <ele>963</ele>
        <time>2020-04-15T19:18:28Z</time>
      </trkpt>
      <trkpt lat="43.78284" lon="6.2855">
        <ele>958</ele>
        <time>2020-04-15T19:18:44Z</time>
      </trkpt>
      <trkpt lat="43.78274" lon="6.28567">
        <ele>960</ele>
        <time>2020-04-15T19:18:57Z</time>
      </trkpt>
      <trkpt lat="43.78265" lon="6.28537">
        <ele>948</ele>
        <time>2020-04-15T19:19:15Z</time>
      </trkpt>
      <trkpt lat="43.78249" lon="6.28516">
        <ele>937</ele>
        <time>2020-04-15T19:19:33Z</time>
      </trkpt>
      <trkpt lat="43.7823" lon="6.28482">
        <ele>928</ele>
        <time>2020-04-15T19:19:58Z</time>
      </trkpt>
      <trkpt lat="43.78199" lon="6.28467">
        <ele>927</ele>
        <time>2020-04-15T19:20:24Z</time>
      </trkpt>
      <trkpt lat="43.78173" lon="6.28445">
        <ele>921</ele>
        <time>2020-04-15T19:20:48Z</time>
      </trkpt>
      <trkpt lat="43.78154" lon="6.28397">
        <ele>899</ele>
        <time>2020-04-15T19:21:20Z</time>
      </trkpt>
      <trkpt lat="43.78137" lon="6.28333">
        <ele>873</ele>
        <time>2020-04-15T19:22:00Z</time>
      </trkpt>
      <trkpt lat="43.78116" lon="6.28349">
        <ele>881</ele>
        <time>2020-04-15T19:22:19Z</time>
      </trkpt>
      <trkpt lat="43.78099" lon="6.28342">
        <ele>878</ele>
        <time>2020-04-15T19:22:33Z</time>
      </trkpt>
      <trkpt lat="43.78109" lon="6.28319">
        <ele>868</ele>
        <time>2020-04-15T19:22:48Z</time>
      </trkpt>
      <trkpt lat="43.78089" lon="6.28319">
        <ele>869</ele>
        <time>2020-04-15T19:23:04Z</time>
      </trkpt>
      <trkpt lat="43.78107" lon="6.28278">
        <ele>853</ele>
        <time>2020-04-15T19:23:32Z</time>
      </trkpt>
      <trkpt lat="43.78086" lon="6.28282">
        <ele>854</ele>
        <time>2020-04-15T19:23:49Z</time>
      </trkpt>
      <trkpt lat="43.78092" lon="6.28251">
        <ele>842</ele>
        <time>2020-04-15T19:24:08Z</time>
      </trkpt>
      <trkpt lat="43.7805" lon="6.28223">
        <ele>831</ele>
        <time>2020-04-15T19:24:45Z</time>
      </trkpt>
      <trkpt lat="43.78008" lon="6.28237">
        <ele>833</ele>
        <time>2020-04-15T19:25:20Z</time>
      </trkpt>
      <trkpt lat="43.77954" lon="6.28231">
        <ele>825</ele>
        <time>2020-04-15T19:26:03Z</time>
      </trkpt>
      <trkpt lat="43.77906" lon="6.28237">
        <ele>822</ele>
        <time>2020-04-15T19:26:42Z</time>
      </trkpt>
      <trkpt lat="43.7786" lon="6.28259">
        <ele>823</ele>
        <time>2020-04-15T19:27:21Z</time>
      </trkpt>
      <trkpt lat="43.77815" lon="6.28264">
        <ele>820</ele>
        <time>2020-04-15T19:27:57Z</time>
      </trkpt>
      <trkpt lat="43.77746" lon="6.28258">
        <ele>818</ele>
        <time>2020-04-15T19:28:52Z</time>
      </trkpt>
      <trkpt lat="43.77676" lon="6.28238">
        <ele>813</ele>
        <time>2020-04-15T19:29:49Z</time>
      </trkpt>
      <trkpt lat="43.77631" lon="6.28243">
        <ele>810</ele>
        <time>2020-04-15T19:30:25Z</time>
      </trkpt>
      <trkpt lat="43.77635" lon="6.28206">
        <ele>806</ele>
        <time>2020-04-15T19:30:47Z</time>
      </trkpt>
      <trkpt lat="43.77682" lon="6.28203">
        <ele>804</ele>
        <time>2020-04-15T19:31:25Z</time>
      </trkpt>
      <trkpt lat="43.77787" lon="6.28178">
        <ele>792</ele>
        <time>2020-04-15T19:32:50Z</time>
      </trkpt>
      <trkpt lat="43.77843" lon="6.28152">
        <ele>787</ele>
        <time>2020-04-15T19:33:37Z</time>
      </trkpt>
      <trkpt lat="43.77983" lon="6.28059">
        <ele>772</ele>
        <time>2020-04-15T19:35:42Z</time>
      </trkpt>
      <trkpt lat="43.78046" lon="6.28029">
        <ele>772</ele>
        <time>2020-04-15T19:36:35Z</time>
      </trkpt>
      <trkpt lat="43.78073" lon="6.27994">
        <ele>769</ele>
        <time>2020-04-15T19:37:05Z</time>
      </trkpt>
      <trkpt lat="43.78087" lon="6.27962">
        <ele>766</ele>
        <time>2020-04-15T19:37:26Z</time>
      </trkpt>
      <trkpt lat="43.78093" lon="6.27923">
        <ele>762</ele>
        <time>2020-04-15T19:37:49Z</time>
      </trkpt>
      <trkpt lat="43.78106" lon="6.2789">
        <ele>761</ele>
        <time>2020-04-15T19:38:11Z</time>
      </trkpt>
      <trkpt lat="43.78132" lon="6.27851">
        <ele>762</ele>
        <time>2020-04-15T19:38:42Z</time>
      </trkpt>
      <trkpt lat="43.78216" lon="6.27706">
        <ele>751</ele>
        <time>2020-04-15T19:40:29Z</time>
      </trkpt>
      <trkpt lat="43.7824" lon="6.27698">
        <ele>757</ele>
        <time>2020-04-15T19:40:49Z</time>
      </trkpt>
      <trkpt lat="43.78262" lon="6.27685">
        <ele>764</ele>
        <time>2020-04-15T19:41:08Z</time>
      </trkpt>
      <trkpt lat="43.78271" lon="6.27651">
        <ele>759</ele>
        <time>2020-04-15T19:41:29Z</time>
      </trkpt>
      <trkpt lat="43.7828" lon="6.27597">
        <ele>744</ele>
        <time>2020-04-15T19:42:01Z</time>
      </trkpt>
      <trkpt lat="43.78292" lon="6.27555">
        <ele>738</ele>
        <time>2020-04-15T19:42:27Z</time>
      </trkpt>
      <trkpt lat="43.78316" lon="6.27522">
        <ele>742</ele>
        <time>2020-04-15T19:42:54Z</time>
      </trkpt>
      <trkpt lat="43.78335" lon="6.27489">
        <ele>742</ele>
        <time>2020-04-15T19:43:19Z</time>
      </trkpt>
      <trkpt lat="43.78343" lon="6.27421">
        <ele>730</ele>
        <time>2020-04-15T19:43:58Z</time>
      </trkpt>
      <trkpt lat="43.78366" lon="6.27361">
        <ele>727</ele>
        <time>2020-04-15T19:44:38Z</time>
      </trkpt>
      <trkpt lat="43.78396" lon="6.27305">
        <ele>727</ele>
        <time>2020-04-15T19:45:18Z</time>
      </trkpt>
      <trkpt lat="43.78433" lon="6.27267">
        <ele>737</ele>
        <time>2020-04-15T19:45:55Z</time>
      </trkpt>
      <trkpt lat="43.78449" lon="6.27236">
        <ele>741</ele>
        <time>2020-04-15T19:46:17Z</time>
      </trkpt>
      <trkpt lat="43.78444" lon="6.27193">
        <ele>731</ele>
        <time>2020-04-15T19:46:42Z</time>
      </trkpt>
      <trkpt lat="43.78443" lon="6.27147">
        <ele>726</ele>
        <time>2020-04-15T19:47:09Z</time>
      </trkpt>
      <trkpt lat="43.78457" lon="6.27109">
        <ele>738</ele>
        <time>2020-04-15T19:47:33Z</time>
      </trkpt>
      <trkpt lat="43.78457" lon="6.27076">
        <ele>737</ele>
        <time>2020-04-15T19:47:52Z</time>
      </trkpt>
      <trkpt lat="43.78435" lon="6.26971">
        <ele>718</ele>
        <time>2020-04-15T19:48:56Z</time>
      </trkpt>
      <trkpt lat="43.78436" lon="6.2692">
        <ele>715</ele>
        <time>2020-04-15T19:49:25Z</time>
      </trkpt>
      <trkpt lat="43.78432" lon="6.26869">
        <ele>712</ele>
        <time>2020-04-15T19:49:55Z</time>
      </trkpt>
      <trkpt lat="43.78432" lon="6.26818">
        <ele>713</ele>
        <time>2020-04-15T19:50:24Z</time>
      </trkpt>
      <trkpt lat="43.78437" lon="6.26771">
        <ele>718</ele>
        <time>2020-04-15T19:50:52Z</time>
      </trkpt>
      <trkpt lat="43.78422" lon="6.26756">
        <ele>718</ele>
        <time>2020-04-15T19:51:07Z</time>
      </trkpt>
      <trkpt lat="43.78442" lon="6.26697">
        <ele>715</ele>
        <time>2020-04-15T19:51:44Z</time>
      </trkpt>
      <trkpt lat="43.78459" lon="6.2668">
        <ele>709</ele>
        <time>2020-04-15T19:52:01Z</time>
      </trkpt>
      <trkpt lat="43.78467" lon="6.26647">
        <ele>702</ele>
        <time>2020-04-15T19:52:21Z</time>
      </trkpt>
      <trkpt lat="43.78518" lon="6.26586">
        <ele>683</ele>
        <time>2020-04-15T19:53:15Z</time>
      </trkpt>
      <trkpt lat="43.78556" lon="6.26554">
        <ele>667</ele>
        <time>2020-04-15T19:53:51Z</time>
      </trkpt>
      <trkpt lat="43.78597" lon="6.26527">
        <ele>651</ele>
        <time>2020-04-15T19:54:27Z</time>
      </trkpt>
      <trkpt lat="43.78643" lon="6.26452">
        <ele>624</ele>
        <time>2020-04-15T19:55:24Z</time>
      </trkpt>
      <trkpt lat="43.7868" lon="6.26422">
        <ele>611</ele>
        <time>2020-04-15T19:55:58Z</time>
      </trkpt>
      <trkpt lat="43.78715" lon="6.26387">
        <ele>599</ele>
        <time>2020-04-15T19:56:33Z</time>
      </trkpt>
      <trkpt lat="43.78744" lon="6.26381">
        <ele>597</ele>
        <time>2020-04-15T19:56:56Z</time>
      </trkpt>
      <trkpt lat="43.78774" lon="6.26386">
        <ele>596</ele>
        <time>2020-04-15T19:57:21Z</time>
      </trkpt>
      <trkpt lat="43.78817" lon="6.26386">
        <ele>591</ele>
        <time>2020-04-15T19:57:55Z</time>
      </trkpt>
      <trkpt lat="43.78842" lon="6.26357">
        <ele>582</ele>
        <time>2020-04-15T19:58:21Z</time>
      </trkpt>
      <trkpt lat="43.78858" lon="6.26301">
        <ele>563</ele>
        <time>2020-04-15T19:58:56Z</time>
      </trkpt>
      <trkpt lat="43.78979" lon="6.26243">
        <ele>551</ele>
        <time>2020-04-15T20:00:38Z</time>
      </trkpt>
      <trkpt lat="43.79013" lon="6.26211">
        <ele>541</ele>
        <time>2020-04-15T20:01:11Z</time>
      </trkpt>
      <trkpt lat="43.79038" lon="6.26191">
        <ele>533</ele>
        <time>2020-04-15T20:01:34Z</time>
      </trkpt>
      <trkpt lat="43.79069" lon="6.26196">
        <ele>534</ele>
        <time>2020-04-15T20:01:59Z</time>
      </trkpt>
      <trkpt lat="43.79085" lon="6.26175">
        <ele>526</ele>
        <time>2020-04-15T20:02:17Z</time>
      </trkpt>
      <trkpt lat="43.79088" lon="6.2615">
        <ele>517</ele>
        <time>2020-04-15T20:02:32Z</time>
      </trkpt>
      <trkpt lat="43.79101" lon="6.26131">
        <ele>511</ele>
        <time>2020-04-15T20:02:47Z</time>
      </trkpt>
      <trkpt lat="43.79146" lon="6.26141">
        <ele>520</ele>
        <time>2020-04-15T20:03:23Z</time>
      </trkpt>
      <trkpt lat="43.7916" lon="6.26164">
        <ele>529</ele>
        <time>2020-04-15T20:03:41Z</time>
      </trkpt>
      <trkpt lat="43.79186" lon="6.2615">
        <ele>528</ele>
        <time>2020-04-15T20:04:03Z</time>
      </trkpt>
      <trkpt lat="43.79186" lon="6.26117">
        <ele>516</ele>
        <time>2020-04-15T20:04:22Z</time>
      </trkpt>
      <trkpt lat="43.79211" lon="6.26108">
        <ele>516</ele>
        <time>2020-04-15T20:04:43Z</time>
      </trkpt>
      <trkpt lat="43.7922" lon="6.26087">
        <ele>509</ele>
        <time>2020-04-15T20:04:57Z</time>
      </trkpt>
      <trkpt lat="43.79258" lon="6.26088">
        <ele>513</ele>
        <time>2020-04-15T20:05:27Z</time>
      </trkpt>
      <trkpt lat="43.79346" lon="6.26018">
        <ele>500</ele>
        <time>2020-04-15T20:06:49Z</time>
      </trkpt>
      <trkpt lat="43.79371" lon="6.25979">
        <ele>498</ele>
        <time>2020-04-15T20:07:19Z</time>
      </trkpt>
      <trkpt lat="43.79372" lon="6.25908">
        <ele>497</ele>
        <time>2020-04-15T20:08:00Z</time>
      </trkpt>
      <trkpt lat="43.79438" lon="6.25876">
        <ele>499</ele>
        <time>2020-04-15T20:08:56Z</time>
      </trkpt>
      <trkpt lat="43.7948" lon="6.25861">
        <ele>494</ele>
        <time>2020-04-15T20:09:31Z</time>
      </trkpt>
      <trkpt lat="43.79566" lon="6.25791">
        <ele>514</ele>
        <time>2020-04-15T20:10:50Z</time>
      </trkpt>
      <trkpt lat="43.79621" lon="6.25777">
        <ele>513</ele>
        <time>2020-04-15T20:11:35Z</time>
      </trkpt>
      <trkpt lat="43.79675" lon="6.25774">
        <ele>507</ele>
        <time>2020-04-15T20:12:18Z</time>
      </trkpt>
      <trkpt lat="43.79743" lon="6.25745">
        <ele>490</ele>
        <time>2020-04-15T20:13:15Z</time>
      </trkpt>
      <trkpt lat="43.79763" lon="6.25701">
        <ele>504</ele>
        <time>2020-04-15T20:13:45Z</time>
      </trkpt>
      <trkpt lat="43.79805" lon="6.25668">
        <ele>502</ele>
        <time>2020-04-15T20:14:24Z</time>
      </trkpt>
      <trkpt lat="43.79877" lon="6.25586">
        <ele>522</ele>
        <time>2020-04-15T20:15:39Z</time>
      </trkpt>
      <trkpt lat="43.79954" lon="6.25524">
        <ele>547</ele>
        <time>2020-04-15T20:16:50Z</time>
      </trkpt>
      <trkpt lat="43.79994" lon="6.25477">
        <ele>548</ele>
        <time>2020-04-15T20:17:32Z</time>
      </trkpt>
      <trkpt lat="43.80031" lon="6.25451">
        <ele>552</ele>
        <time>2020-04-15T20:18:05Z</time>
      </trkpt>
      <trkpt lat="43.80092" lon="6.25349">
        <ele>551</ele>
        <time>2020-04-15T20:19:22Z</time>
      </trkpt>
      <trkpt lat="43.80129" lon="6.25234">
        <ele>535</ele>
        <time>2020-04-15T20:20:35Z</time>
      </trkpt>
      <trkpt lat="43.80131" lon="6.25088">
        <ele>515</ele>
        <time>2020-04-15T20:21:59Z</time>
      </trkpt>
      <trkpt lat="43.80144" lon="6.2504">
        <ele>503</ele>
        <time>2020-04-15T20:22:29Z</time>
      </trkpt>
      <trkpt lat="43.80153" lon="6.24969">
        <ele>490</ele>
        <time>2020-04-15T20:23:10Z</time>
      </trkpt>
      <trkpt lat="43.80155" lon="6.24931">
        <ele>485</ele>
        <time>2020-04-15T20:23:32Z</time>
      </trkpt>
      <trkpt lat="43.80137" lon="6.24847">
        <ele>482</ele>
        <time>2020-04-15T20:24:23Z</time>
      </trkpt>
      <trkpt lat="43.80134" lon="6.2479">
        <ele>479</ele>
        <time>2020-04-15T20:24:56Z</time>
      </trkpt>
      <trkpt lat="43.8012" lon="6.24724">
        <ele>478</ele>
        <time>2020-04-15T20:25:36Z</time>
      </trkpt>
      <trkpt lat="43.80098" lon="6.24694">
        <ele>479</ele>
        <time>2020-04-15T20:26:00Z</time>
      </trkpt>
      <trkpt lat="43.80092" lon="6.24655">
        <ele>478</ele>
        <time>2020-04-15T20:26:23Z</time>
      </trkpt>
      <trkpt lat="43.80079" lon="6.24627">
        <ele>479</ele>
        <time>2020-04-15T20:26:43Z</time>
      </trkpt>
      <trkpt lat="43.80076" lon="6.24594">
        <ele>479</ele>
        <time>2020-04-15T20:27:02Z</time>
      </trkpt>
      <trkpt lat="43.80024" lon="6.24521">
        <ele>479</ele>
        <time>2020-04-15T20:28:01Z</time>
      </trkpt>
      <trkpt lat="43.79966" lon="6.24463">
        <ele>481</ele>
        <time>2020-04-15T20:28:58Z</time>
      </trkpt>
      <trkpt lat="43.79943" lon="6.24446">
        <ele>482</ele>
        <time>2020-04-15T20:29:19Z</time>
      </trkpt>
      <trkpt lat="43.79919" lon="6.24409">
        <ele>481</ele>
        <time>2020-04-15T20:29:48Z</time>
      </trkpt>
      <trkpt lat="43.79893" lon="6.24377">
        <ele>483</ele>
        <time>2020-04-15T20:30:16Z</time>
      </trkpt>
      <trkpt lat="43.79872" lon="6.24359">
        <ele>485</ele>
        <time>2020-04-15T20:30:36Z</time>
      </trkpt>
      <trkpt lat="43.79847" lon="6.24304">
        <ele>485</ele>
        <time>2020-04-15T20:31:13Z</time>
      </trkpt>
      <trkpt lat="43.7982" lon="6.24283">
        <ele>486</ele>
        <time>2020-04-15T20:31:38Z</time>
      </trkpt>
      <trkpt lat="43.79807" lon="6.24245">
        <ele>485</ele>
        <time>2020-04-15T20:32:02Z</time>
      </trkpt>
      <trkpt lat="43.79752" lon="6.2411">
        <ele>488</ele>
        <time>2020-04-15T20:33:32Z</time>
      </trkpt>
      <trkpt lat="43.79807" lon="6.24074">
        <ele>482</ele>
        <time>2020-04-15T20:34:21Z</time>
      </trkpt>
      <trkpt lat="43.79807" lon="6.24005">
        <ele>480</ele>
        <time>2020-04-15T20:35:00Z</time>
      </trkpt>
      <trkpt lat="43.79815" lon="6.23969">
        <ele>479</ele>
        <time>2020-04-15T20:35:22Z</time>
      </trkpt>
      <trkpt lat="43.79803" lon="6.23868">
        <ele>478</ele>
        <time>2020-04-15T20:36:21Z</time>
      </trkpt>
      <trkpt lat="43.7976" lon="6.23805">
        <ele>481</ele>
        <time>2020-04-15T20:37:12Z</time>
      </trkpt>
      <trkpt lat="43.79745" lon="6.23743">
        <ele>478</ele>
        <time>2020-04-15T20:37:49Z</time>
      </trkpt>
      <trkpt lat="43.79723" lon="6.23668">
        <ele>477</ele>
        <time>2020-04-15T20:38:36Z</time>
      </trkpt>
      <trkpt lat="43.79678" lon="6.23645">
        <ele>480</ele>
        <time>2020-04-15T20:39:14Z</time>
      </trkpt>
      <trkpt lat="43.7962" lon="6.23656">
        <ele>486</ele>
        <time>2020-04-15T20:40:01Z</time>
      </trkpt>
      <trkpt lat="43.79589" lon="6.23694">
        <ele>491</ele>
        <time>2020-04-15T20:40:35Z</time>
      </trkpt>
      <trkpt lat="43.79553" lon="6.23724">
        <ele>495</ele>
        <time>2020-04-15T20:41:08Z</time>
      </trkpt>
      <trkpt lat="43.79514" lon="6.23727">
        <ele>495</ele>
        <time>2020-04-15T20:41:39Z</time>
      </trkpt>
      <trkpt lat="43.7947" lon="6.23727">
        <ele>498</ele>
        <time>2020-04-15T20:42:15Z</time>
      </trkpt>
      <trkpt lat="43.79408" lon="6.23707">
        <ele>508</ele>
        <time>2020-04-15T20:43:06Z</time>
      </trkpt>
      <trkpt lat="43.79365" lon="6.23732">
        <ele>515</ele>
        <time>2020-04-15T20:43:43Z</time>
      </trkpt>
      <trkpt lat="43.79322" lon="6.2373">
        <ele>523</ele>
        <time>2020-04-15T20:44:17Z</time>
      </trkpt>
      <trkpt lat="43.79289" lon="6.2375">
        <ele>527</ele>
        <time>2020-04-15T20:44:46Z</time>
      </trkpt>
      <trkpt lat="43.79255" lon="6.23736">
        <ele>534</ele>
        <time>2020-04-15T20:45:15Z</time>
      </trkpt>
      <trkpt lat="43.79229" lon="6.23712">
        <ele>540</ele>
        <time>2020-04-15T20:45:40Z</time>
      </trkpt>
      <trkpt lat="43.79142" lon="6.2378">
        <ele>553</ele>
        <time>2020-04-15T20:47:00Z</time>
      </trkpt>
      <trkpt lat="43.79142" lon="6.23708">
        <ele>551</ele>
        <time>2020-04-15T20:47:41Z</time>
      </trkpt>
      <trkpt lat="43.79124" lon="6.23657">
        <ele>549</ele>
        <time>2020-04-15T20:48:14Z</time>
      </trkpt>
      <trkpt lat="43.79091" lon="6.23613">
        <ele>545</ele>
        <time>2020-04-15T20:48:51Z</time>
      </trkpt>
      <trkpt lat="43.79054" lon="6.23655">
        <ele>551</ele>
        <time>2020-04-15T20:49:29Z</time>
      </trkpt>
      <trkpt lat="43.78876" lon="6.23768">
        <ele>575</ele>
        <time>2020-04-15T20:52:06Z</time>
      </trkpt>
      <trkpt lat="43.7887" lon="6.23813">
        <ele>580</ele>
        <time>2020-04-15T20:52:32Z</time>
      </trkpt>
      <trkpt lat="43.78806" lon="6.23866">
        <ele>587</ele>
        <time>2020-04-15T20:53:32Z</time>
      </trkpt>
      <trkpt lat="43.7876" lon="6.23897">
        <ele>592</ele>
        <time>2020-04-15T20:54:13Z</time>
      </trkpt>
      <trkpt lat="43.7869" lon="6.23939">
        <ele>599</ele>
        <time>2020-04-15T20:55:14Z</time>
      </trkpt>
      <trkpt lat="43.78648" lon="6.23953">
        <ele>604</ele>
        <time>2020-04-15T20:55:49Z</time>
      </trkpt>
      <trkpt lat="43.78604" lon="6.23948">
        <ele>606</ele>
        <time>2020-04-15T20:56:24Z</time>
      </trkpt>
      <trkpt lat="43.78584" lon="6.2394">
        <ele>607</ele>
        <time>2020-04-15T20:56:41Z</time>
      </trkpt>
      <trkpt lat="43.78564" lon="6.23902">
        <ele>604</ele>
        <time>2020-04-15T20:57:08Z</time>
      </trkpt>
      <trkpt lat="43.78464" lon="6.23949">
        <ele>617</ele>
        <time>2020-04-15T20:58:32Z</time>
      </trkpt>
      <trkpt lat="43.78432" lon="6.23979">
        <ele>621</ele>
        <time>2020-04-15T20:59:03Z</time>
      </trkpt>
      <trkpt lat="43.7844" lon="6.24058">
        <ele>629</ele>
        <time>2020-04-15T20:59:49Z</time>
      </trkpt>
      <trkpt lat="43.78366" lon="6.24096">
        <ele>641</ele>
        <time>2020-04-15T21:00:53Z</time>
      </trkpt>
      <trkpt lat="43.78313" lon="6.24127">
        <ele>654</ele>
        <time>2020-04-15T21:01:39Z</time>
      </trkpt>
      <trkpt lat="43.78296" lon="6.24105">
        <ele>654</ele>
        <time>2020-04-15T21:01:57Z</time>
      </trkpt>
      <trkpt lat="43.7828" lon="6.24038">
        <ele>651</ele>
        <time>2020-04-15T21:02:38Z</time>
      </trkpt>
      <trkpt lat="43.78244" lon="6.24031">
        <ele>658</ele>
        <time>2020-04-15T21:03:07Z</time>
      </trkpt>
      <trkpt lat="43.78214" lon="6.24043">
        <ele>663</ele>
        <time>2020-04-15T21:03:32Z</time>
      </trkpt>
      <trkpt lat="43.78145" lon="6.23996">
        <ele>669</ele>
        <time>2020-04-15T21:04:34Z</time>
      </trkpt>
      <trkpt lat="43.78109" lon="6.23968">
        <ele>674</ele>
        <time>2020-04-15T21:05:07Z</time>
      </trkpt>
      <trkpt lat="43.78103" lon="6.23916">
        <ele>669</ele>
        <time>2020-04-15T21:05:37Z</time>
      </trkpt>
      <trkpt lat="43.78046" lon="6.23898">
        <ele>676</ele>
        <time>2020-04-15T21:06:24Z</time>
      </trkpt>
      <trkpt lat="43.77977" lon="6.23883">
        <ele>683</ele>
        <time>2020-04-15T21:07:20Z</time>
      </trkpt>
      <trkpt lat="43.77984" lon="6.23935">
        <ele>688</ele>
        <time>2020-04-15T21:07:51Z</time>
      </trkpt>
      <trkpt lat="43.78051" lon="6.24071">
        <ele>696</ele>
        <time>2020-04-15T21:09:26Z</time>
      </trkpt>
      <trkpt lat="43.77955" lon="6.24099">
        <ele>710</ele>
        <time>2020-04-15T21:10:44Z</time>
      </trkpt>
      <trkpt lat="43.77931" lon="6.2411">
        <ele>715</ele>
        <time>2020-04-15T21:11:05Z</time>
      </trkpt>
      <trkpt lat="43.77901" lon="6.24101">
        <ele>717</ele>
        <time>2020-04-15T21:11:29Z</time>
      </trkpt>
      <trkpt lat="43.77821" lon="6.24117">
        <ele>731</ele>
        <time>2020-04-15T21:12:34Z</time>
      </trkpt>
      <trkpt lat="43.77799" lon="6.24095">
        <ele>731</ele>
        <time>2020-04-15T21:12:56Z</time>
      </trkpt>
      <trkpt lat="43.77777" lon="6.241">
        <ele>736</ele>
        <time>2020-04-15T21:13:13Z</time>
      </trkpt>
      <trkpt lat="43.77713" lon="6.24104">
        <ele>747</ele>
        <time>2020-04-15T21:14:05Z</time>
      </trkpt>
      <trkpt lat="43.7767" lon="6.24085">
        <ele>751</ele>
        <time>2020-04-15T21:14:41Z</time>
      </trkpt>
      <trkpt lat="43.77621" lon="6.24073">
        <ele>754</ele>
        <time>2020-04-15T21:15:21Z</time>
      </trkpt>
      <trkpt lat="43.77569" lon="6.24101">
        <ele>763</ele>
        <time>2020-04-15T21:16:05Z</time>
      </trkpt>
      <trkpt lat="43.77522" lon="6.2399">
        <ele>757</ele>
        <time>2020-04-15T21:17:20Z</time>
      </trkpt>
      <trkpt lat="43.77506" lon="6.23961">
        <ele>755</ele>
        <time>2020-04-15T21:17:41Z</time>
      </trkpt>
      <trkpt lat="43.77468" lon="6.23938">
        <ele>754</ele>
        <time>2020-04-15T21:18:14Z</time>
      </trkpt>
      <trkpt lat="43.77435" lon="6.23867">
        <ele>746</ele>
        <time>2020-04-15T21:19:03Z</time>
      </trkpt>
      <trkpt lat="43.77407" lon="6.23761">
        <ele>735</ele>
        <time>2020-04-15T21:20:08Z</time>
      </trkpt>
      <trkpt lat="43.7736" lon="6.23713">
        <ele>731</ele>
        <time>2020-04-15T21:20:55Z</time>
      </trkpt>
      <trkpt lat="43.7734" lon="6.23762">
        <ele>739</ele>
        <time>2020-04-15T21:21:27Z</time>
      </trkpt>
      <trkpt lat="43.77241" lon="6.23788">
        <ele>735</ele>
        <time>2020-04-15T21:22:48Z</time>
      </trkpt>
      <trkpt lat="43.7715" lon="6.23808">
        <ele>734</ele>
        <time>2020-04-15T21:24:02Z</time>
      </trkpt>
      <trkpt lat="43.77144" lon="6.23762">
        <ele>731</ele>
        <time>2020-04-15T21:24:29Z</time>
      </trkpt>
      <trkpt lat="43.77049" lon="6.23708">
        <ele>720</ele>
        <time>2020-04-15T21:25:51Z</time>
      </trkpt>
      <trkpt lat="43.77009" lon="6.23668">
        <ele>715</ele>
        <time>2020-04-15T21:26:31Z</time>
      </trkpt>
      <trkpt lat="43.76971" lon="6.23624">
        <ele>709</ele>
        <time>2020-04-15T21:27:10Z</time>
      </trkpt>
      <trkpt lat="43.76929" lon="6.23592">
        <ele>706</ele>
        <time>2020-04-15T21:27:49Z</time>
      </trkpt>
      <trkpt lat="43.76904" lon="6.23541">
        <ele>701</ele>
        <time>2020-04-15T21:28:24Z</time>
      </trkpt>
      <trkpt lat="43.76899" lon="6.23488">
        <ele>697</ele>
        <time>2020-04-15T21:28:55Z</time>
      </trkpt>
      <trkpt lat="43.76865" lon="6.23447">
        <ele>693</ele>
        <time>2020-04-15T21:29:31Z</time>
      </trkpt>
      <trkpt lat="43.76818" lon="6.2345">
        <ele>691</ele>
        <time>2020-04-15T21:30:09Z</time>
      </trkpt>
      <trkpt lat="43.76768" lon="6.2348">
        <ele>691</ele>
        <time>2020-04-15T21:30:53Z</time>
      </trkpt>
      <trkpt lat="43.76721" lon="6.23467">
        <ele>688</ele>
        <time>2020-04-15T21:31:31Z</time>
      </trkpt>
      <trkpt lat="43.76667" lon="6.23395">
        <ele>683</ele>
        <time>2020-04-15T21:32:31Z</time>
      </trkpt>
      <trkpt lat="43.76623" lon="6.23436">
        <ele>682</ele>
        <time>2020-04-15T21:33:13Z</time>
      </trkpt>
      <trkpt lat="43.76551" lon="6.23444">
        <ele>677</ele>
        <time>2020-04-15T21:34:11Z</time>
      </trkpt>
      <trkpt lat="43.76502" lon="6.23436">
        <ele>671</ele>
        <time>2020-04-15T21:34:51Z</time>
      </trkpt>
      <trkpt lat="43.76466" lon="6.23418">
        <ele>669</ele>
        <time>2020-04-15T21:35:21Z</time>
      </trkpt>
      <trkpt lat="43.76459" lon="6.2335">
        <ele>665</ele>
        <time>2020-04-15T21:36:01Z</time>
      </trkpt>
      <trkpt lat="43.76444" lon="6.23327">
        <ele>664</ele>
        <time>2020-04-15T21:36:19Z</time>
      </trkpt>
      <trkpt lat="43.764" lon="6.23304">
        <ele>662</ele>
        <time>2020-04-15T21:36:57Z</time>
      </trkpt>
      <trkpt lat="43.76347" lon="6.23272">
        <ele>658</ele>
        <time>2020-04-15T21:37:43Z</time>
      </trkpt>
      <trkpt lat="43.76362" lon="6.23234">
        <ele>654</ele>
        <time>2020-04-15T21:38:08Z</time>
      </trkpt>
      <trkpt lat="43.76356" lon="6.23207">
        <ele>652</ele>
        <time>2020-04-15T21:38:24Z</time>
      </trkpt>
      <trkpt lat="43.76336" lon="6.23166">
        <ele>648</ele>
        <time>2020-04-15T21:38:53Z</time>
      </trkpt>
      <trkpt lat="43.76362" lon="6.23119">
        <ele>645</ele>
        <time>2020-04-15T21:39:27Z</time>
      </trkpt>
      <trkpt lat="43.76329" lon="6.23077">
        <ele>640</ele>
        <time>2020-04-15T21:40:03Z</time>
      </trkpt>
      <trkpt lat="43.7634" lon="6.23049">
        <ele>638</ele>
        <time>2020-04-15T21:40:22Z</time>
      </trkpt>
      <trkpt lat="43.76372" lon="6.23028">
        <ele>637</ele>
        <time>2020-04-15T21:40:50Z</time>
      </trkpt>
      <trkpt lat="43.76398" lon="6.23003">
        <ele>635</ele>
        <time>2020-04-15T21:41:15Z</time>
      </trkpt>
      <trkpt lat="43.76353" lon="6.22978">
        <ele>631</ele>
        <time>2020-04-15T21:41:54Z</time>
      </trkpt>
      <trkpt lat="43.76384" lon="6.22955">
        <ele>629</ele>
        <time>2020-04-15T21:42:22Z</time>
      </trkpt>
      <trkpt lat="43.76366" lon="6.2291">
        <ele>624</ele>
        <time>2020-04-15T21:42:52Z</time>
      </trkpt>
      <trkpt lat="43.76374" lon="6.2284">
        <ele>616</ele>
        <time>2020-04-15T21:43:33Z</time>
      </trkpt>
      <trkpt lat="43.76372" lon="6.22662">
        <ele>600</ele>
        <time>2020-04-15T21:45:16Z</time>
      </trkpt>
      <trkpt lat="43.76368" lon="6.22624">
        <ele>598</ele>
        <time>2020-04-15T21:45:38Z</time>
      </trkpt>
      <trkpt lat="43.76329" lon="6.22636">
        <ele>597</ele>
        <time>2020-04-15T21:46:10Z</time>
      </trkpt>
      <trkpt lat="43.76275" lon="6.22663">
        <ele>600</ele>
        <time>2020-04-15T21:46:56Z</time>
      </trkpt>
      <trkpt lat="43.76219" lon="6.22703">
        <ele>601</ele>
        <time>2020-04-15T21:47:47Z</time>
      </trkpt>
      <trkpt lat="43.76133" lon="6.22753">
        <ele>596</ele>
        <time>2020-04-15T21:49:01Z</time>
      </trkpt>
      <trkpt lat="43.76103" lon="6.22823">
        <ele>596</ele>
        <time>2020-04-15T21:49:48Z</time>
      </trkpt>
      <trkpt lat="43.76079" lon="6.22861">
        <ele>596</ele>
        <time>2020-04-15T21:50:18Z</time>
      </trkpt>
      <trkpt lat="43.76045" lon="6.22856">
        <ele>591</ele>
        <time>2020-04-15T21:50:45Z</time>
      </trkpt>
      <trkpt lat="43.76008" lon="6.22861">
        <ele>586</ele>
        <time>2020-04-15T21:51:15Z</time>
      </trkpt>
      <trkpt lat="43.75969" lon="6.22835">
        <ele>578</ele>
        <time>2020-04-15T21:51:49Z</time>
      </trkpt>
      <trkpt lat="43.75959" lon="6.22793">
        <ele>574</ele>
        <time>2020-04-15T21:52:15Z</time>
      </trkpt>
      <trkpt lat="43.75927" lon="6.22762">
        <ele>569</ele>
        <time>2020-04-15T21:52:46Z</time>
      </trkpt>
      <trkpt lat="43.75914" lon="6.22734">
        <ele>566</ele>
        <time>2020-04-15T21:53:05Z</time>
      </trkpt>
      <trkpt lat="43.75913" lon="6.22697">
        <ele>563</ele>
        <time>2020-04-15T21:53:27Z</time>
      </trkpt>
      <trkpt lat="43.75898" lon="6.22606">
        <ele>555</ele>
        <time>2020-04-15T21:54:21Z</time>
      </trkpt>
      <trkpt lat="43.75874" lon="6.22567">
        <ele>550</ele>
        <time>2020-04-15T21:54:50Z</time>
      </trkpt>
      <trkpt lat="43.75837" lon="6.2252">
        <ele>546</ele>
        <time>2020-04-15T21:55:31Z</time>
      </trkpt>
      <trkpt lat="43.75829" lon="6.22457">
        <ele>541</ele>
        <time>2020-04-15T21:56:08Z</time>
      </trkpt>
      <trkpt lat="43.75851" lon="6.22421">
        <ele>541</ele>
        <time>2020-04-15T21:56:35Z</time>
      </trkpt>
      <trkpt lat="43.75876" lon="6.224">
        <ele>539</ele>
        <time>2020-04-15T21:56:58Z</time>
      </trkpt>
      <trkpt lat="43.75882" lon="6.22375">
        <ele>535</ele>
        <time>2020-04-15T21:57:14Z</time>
      </trkpt>
      <trkpt lat="43.75872" lon="6.22353">
        <ele>532</ele>
        <time>2020-04-15T21:57:29Z</time>
      </trkpt>
      <trkpt lat="43.75845" lon="6.22355">
        <ele>532</ele>
        <time>2020-04-15T21:57:50Z</time>
      </trkpt>
      <trkpt lat="43.75812" lon="6.22344">
        <ele>527</ele>
        <time>2020-04-15T21:58:17Z</time>
      </trkpt>
      <trkpt lat="43.75787" lon="6.22345">
        <ele>523</ele>
        <time>2020-04-15T21:58:37Z</time>
      </trkpt>
      <trkpt lat="43.7577" lon="6.223">
        <ele>516</ele>
        <time>2020-04-15T21:59:07Z</time>
      </trkpt>
      <trkpt lat="43.75765" lon="6.22262">
        <ele>511</ele>
        <time>2020-04-15T21:59:29Z</time>
      </trkpt>
      <trkpt lat="43.75787" lon="6.22237">
        <ele>511</ele>
        <time>2020-04-15T21:59:52Z</time>
      </trkpt>
      <trkpt lat="43.75866" lon="6.22242">
        <ele>518</ele>
        <time>2020-04-15T22:00:55Z</time>
      </trkpt>
      <trkpt lat="43.75881" lon="6.22238">
        <ele>518</ele>
        <time>2020-04-15T22:01:07Z</time>
      </trkpt>
      <trkpt lat="43.75884" lon="6.22214">
        <ele>515</ele>
        <time>2020-04-15T22:01:22Z</time>
      </trkpt>
      <trkpt lat="43.75869" lon="6.22192">
        <ele>512</ele>
        <time>2020-04-15T22:01:39Z</time>
      </trkpt>
      <trkpt lat="43.75838" lon="6.22158">
        <ele>505</ele>
        <time>2020-04-15T22:02:11Z</time>
      </trkpt>
      <trkpt lat="43.75789" lon="6.22163">
        <ele>502</ele>
        <time>2020-04-15T22:02:50Z</time>
      </trkpt>
      <trkpt lat="43.75716" lon="6.22207">
        <ele>500</ele>
        <time>2020-04-15T22:03:54Z</time>
      </trkpt>
      <trkpt lat="43.75695" lon="6.22277">
        <ele>501</ele>
        <time>2020-04-15T22:04:38Z</time>
      </trkpt>
      <trkpt lat="43.75658" lon="6.22303">
        <ele>498</ele>
        <time>2020-04-15T22:05:11Z</time>
      </trkpt>
      <trkpt lat="43.75633" lon="6.22306">
        <ele>500</ele>
        <time>2020-04-15T22:05:31Z</time>
      </trkpt>
      <trkpt lat="43.75613" lon="6.22298">
        <ele>501</ele>
        <time>2020-04-15T22:05:48Z</time>
      </trkpt>
      <trkpt lat="43.75601" lon="6.22266">
        <ele>504</ele>
        <time>2020-04-15T22:06:08Z</time>
      </trkpt>
      <trkpt lat="43.75594" lon="6.22235">
        <ele>507</ele>
        <time>2020-04-15T22:06:27Z</time>
      </trkpt>
      <trkpt lat="43.756" lon="6.22189">
        <ele>509</ele>
        <time>2020-04-15T22:06:54Z</time>
      </trkpt>
      <trkpt lat="43.75612" lon="6.22145">
        <ele>509</ele>
        <time>2020-04-15T22:07:21Z</time>
      </trkpt>
      <trkpt lat="43.75631" lon="6.22131">
        <ele>504</ele>
        <time>2020-04-15T22:07:39Z</time>
      </trkpt>
      <trkpt lat="43.75669" lon="6.22134">
        <ele>494</ele>
        <time>2020-04-15T22:08:09Z</time>
      </trkpt>
      <trkpt lat="43.75693" lon="6.22142">
        <ele>496</ele>
        <time>2020-04-15T22:08:29Z</time>
      </trkpt>
      <trkpt lat="43.75709" lon="6.22097">
        <ele>495</ele>
        <time>2020-04-15T22:08:58Z</time>
      </trkpt>
      <trkpt lat="43.75714" lon="6.22064">
        <ele>496</ele>
        <time>2020-04-15T22:09:17Z</time>
      </trkpt>
      <trkpt lat="43.75747" lon="6.2204">
        <ele>495</ele>
        <time>2020-04-15T22:09:47Z</time>
      </trkpt>
      <trkpt lat="43.75782" lon="6.22028">
        <ele>496</ele>
        <time>2020-04-15T22:10:16Z</time>
      </trkpt>
      <trkpt lat="43.75784" lon="6.21979">
        <ele>495</ele>
        <time>2020-04-15T22:10:45Z</time>
      </trkpt>
      <trkpt lat="43.75782" lon="6.21937">
        <ele>493</ele>
        <time>2020-04-15T22:11:09Z</time>
      </trkpt>
      <trkpt lat="43.75772" lon="6.21903">
        <ele>492</ele>
        <time>2020-04-15T22:11:30Z</time>
      </trkpt>
      <trkpt lat="43.75771" lon="6.21858">
        <ele>491</ele>
        <time>2020-04-15T22:11:56Z</time>
      </trkpt>
      <trkpt lat="43.75765" lon="6.21812">
        <ele>491</ele>
        <time>2020-04-15T22:12:23Z</time>
      </trkpt>
      <trkpt lat="43.75766" lon="6.21762">
        <ele>490</ele>
        <time>2020-04-15T22:12:52Z</time>
      </trkpt>
      <trkpt lat="43.75785" lon="6.2173">
        <ele>489</ele>
        <time>2020-04-15T22:13:16Z</time>
      </trkpt>
      <trkpt lat="43.75823" lon="6.21739">
        <ele>486</ele>
        <time>2020-04-15T22:13:47Z</time>
      </trkpt>
      <trkpt lat="43.75848" lon="6.21748">
        <ele>488</ele>
        <time>2020-04-15T22:14:08Z</time>
      </trkpt>
      <trkpt lat="43.75869" lon="6.21716">
        <ele>488</ele>
        <time>2020-04-15T22:14:33Z</time>
      </trkpt>
      <trkpt lat="43.75885" lon="6.21629">
        <ele>484</ele>
        <time>2020-04-15T22:15:25Z</time>
      </trkpt>
      <trkpt lat="43.75907" lon="6.21593">
        <ele>483</ele>
        <time>2020-04-15T22:15:52Z</time>
      </trkpt>
      <trkpt lat="43.75921" lon="6.21553">
        <ele>481</ele>
        <time>2020-04-15T22:16:18Z</time>
      </trkpt>
      <trkpt lat="43.7596" lon="6.21466">
        <ele>483</ele>
        <time>2020-04-15T22:17:17Z</time>
      </trkpt>
      <trkpt lat="43.75962" lon="6.21429">
        <ele>482</ele>
        <time>2020-04-15T22:17:38Z</time>
      </trkpt>
      <trkpt lat="43.75971" lon="6.21396">
        <ele>481</ele>
        <time>2020-04-15T22:17:59Z</time>
      </trkpt>
      <trkpt lat="43.75983" lon="6.21306">
        <ele>478</ele>
        <time>2020-04-15T22:18:52Z</time>
      </trkpt>
      <trkpt lat="43.75992" lon="6.21269">
        <ele>477</ele>
        <time>2020-04-15T22:19:14Z</time>
      </trkpt>
      <trkpt lat="43.76011" lon="6.21232">
        <ele>477</ele>
        <time>2020-04-15T22:19:40Z</time>
      </trkpt>
      <trkpt lat="43.76034" lon="6.21198">
        <ele>477</ele>
        <time>2020-04-15T22:20:07Z</time>
      </trkpt>
      <trkpt lat="43.76074" lon="6.21152">
        <ele>478</ele>
        <time>2020-04-15T22:20:49Z</time>
      </trkpt>
      <trkpt lat="43.76101" lon="6.21161">
        <ele>479</ele>
        <time>2020-04-15T22:21:11Z</time>
      </trkpt>
      <trkpt lat="43.76158" lon="6.21186">
        <ele>483</ele>
        <time>2020-04-15T22:21:59Z</time>
      </trkpt>
      <trkpt lat="43.76186" lon="6.21176">
        <ele>482</ele>
        <time>2020-04-15T22:22:22Z</time>
      </trkpt>
      <trkpt lat="43.76202" lon="6.2116">
        <ele>481</ele>
        <time>2020-04-15T22:22:38Z</time>
      </trkpt>
      <trkpt lat="43.76217" lon="6.21158">
        <ele>480</ele>
        <time>2020-04-15T22:22:50Z</time>
      </trkpt>
      <trkpt lat="43.76236" lon="6.2111">
        <ele>476</ele>
        <time>2020-04-15T22:23:22Z</time>
      </trkpt>
      <trkpt lat="43.76247" lon="6.21063">
        <ele>473</ele>
        <time>2020-04-15T22:23:50Z</time>
      </trkpt>
      <trkpt lat="43.76179" lon="6.21072">
        <ele>476</ele>
        <time>2020-04-15T22:24:45Z</time>
      </trkpt>
      <trkpt lat="43.76153" lon="6.21062">
        <ele>475</ele>
        <time>2020-04-15T22:25:07Z</time>
      </trkpt>
      <trkpt lat="43.76133" lon="6.21049">
        <ele>474</ele>
        <time>2020-04-15T22:25:24Z</time>
      </trkpt>
      <trkpt lat="43.76094" lon="6.21062">
        <ele>474</ele>
        <time>2020-04-15T22:25:56Z</time>
      </trkpt>
      <trkpt lat="43.75808" lon="6.20811">
        <ele>473</ele>
        <time>2020-04-15T22:30:28Z</time>
      </trkpt>
      <trkpt lat="43.75805" lon="6.20784">
        <ele>473</ele>
        <time>2020-04-15T22:30:43Z</time>
      </trkpt>
      <trkpt lat="43.7581" lon="6.20752">
        <ele>472</ele>
        <time>2020-04-15T22:31:02Z</time>
      </trkpt>
      <trkpt lat="43.75794" lon="6.20723">
        <ele>472</ele>
        <time>2020-04-15T22:31:23Z</time>
      </trkpt>
      <trkpt lat="43.75765" lon="6.20739">
        <ele>474</ele>
        <time>2020-04-15T22:31:48Z</time>
      </trkpt>
      <trkpt lat="43.75737" lon="6.20765">
        <ele>476</ele>
        <time>2020-04-15T22:32:15Z</time>
      </trkpt>
      <trkpt lat="43.75705" lon="6.2078">
        <ele>476</ele>
        <time>2020-04-15T22:32:42Z</time>
      </trkpt>
      <trkpt lat="43.7565" lon="6.20792">
        <ele>476</ele>
        <time>2020-04-15T22:33:27Z</time>
      </trkpt>
      <trkpt lat="43.75574" lon="6.20617">
        <ele>470</ele>
        <time>2020-04-15T22:35:25Z</time>
      </trkpt>
      <trkpt lat="43.75473" lon="6.20368">
        <ele>473</ele>
        <time>2020-04-15T22:38:10Z</time>
      </trkpt>
      <trkpt lat="43.75425" lon="6.20289">
        <ele>483</ele>
        <time>2020-04-15T22:39:10Z</time>
      </trkpt>
      <trkpt lat="43.7546" lon="6.20197">
        <ele>484</ele>
        <time>2020-04-15T22:40:10Z</time>
      </trkpt>
      <trkpt lat="43.75513" lon="6.20103">
        <ele>484</ele>
        <time>2020-04-15T22:41:19Z</time>
      </trkpt>
      <trkpt lat="43.75528" lon="6.20066">
        <ele>484</ele>
        <time>2020-04-15T22:41:44Z</time>
      </trkpt>
      <trkpt lat="43.75536" lon="6.20032">
        <ele>484</ele>
        <time>2020-04-15T22:42:04Z</time>
      </trkpt>
      <trkpt lat="43.75527" lon="6.19989">
        <ele>485</ele>
        <time>2020-04-15T22:42:30Z</time>
      </trkpt>
      <trkpt lat="43.75521" lon="6.19934">
        <ele>486</ele>
        <time>2020-04-15T22:43:02Z</time>
      </trkpt>
      <trkpt lat="43.75548" lon="6.19901">
        <ele>485</ele>
        <time>2020-04-15T22:43:31Z</time>
      </trkpt>
      <trkpt lat="43.75576" lon="6.19884">
        <ele>485</ele>
        <time>2020-04-15T22:43:56Z</time>
      </trkpt>
      <trkpt lat="43.75617" lon="6.19888">
        <ele>482</ele>
        <time>2020-04-15T22:44:29Z</time>
      </trkpt>
      <trkpt lat="43.75678" lon="6.1985">
        <ele>482</ele>
        <time>2020-04-15T22:45:22Z</time>
      </trkpt>
      <trkpt lat="43.75704" lon="6.19813">
        <ele>480</ele>
        <time>2020-04-15T22:45:52Z</time>
      </trkpt>
      <trkpt lat="43.75711" lon="6.19784">
        <ele>480</ele>
        <time>2020-04-15T22:46:10Z</time>
      </trkpt>
      <trkpt lat="43.75747" lon="6.19813">
        <ele>475</ele>
        <time>2020-04-15T22:46:43Z</time>
      </trkpt>
      <trkpt lat="43.76469" lon="6.20144">
        <ele>478</ele>
        <time>2020-04-15T22:56:52Z</time>
      </trkpt>
      <trkpt lat="43.765" lon="6.20056">
        <ele>475</ele>
        <time>2020-04-15T22:57:49Z</time>
      </trkpt>
      <trkpt lat="43.7653" lon="6.20007">
        <ele>474</ele>
        <time>2020-04-15T22:58:26Z</time>
      </trkpt>
      <trkpt lat="43.76554" lon="6.19984">
        <ele>473</ele>
        <time>2020-04-15T22:58:49Z</time>
      </trkpt>
      <trkpt lat="43.76581" lon="6.19983">
        <ele>474</ele>
        <time>2020-04-15T22:59:11Z</time>
      </trkpt>
      <trkpt lat="43.76636" lon="6.19998">
        <ele>476</ele>
        <time>2020-04-15T22:59:56Z</time>
      </trkpt>
      <trkpt lat="43.76665" lon="6.20056">
        <ele>478</ele>
        <time>2020-04-15T23:00:36Z</time>
      </trkpt>
      <trkpt lat="43.76682" lon="6.20113">
        <ele>479</ele>
        <time>2020-04-15T23:01:12Z</time>
      </trkpt>
      <trkpt lat="43.76755" lon="6.20216">
        <ele>480</ele>
        <time>2020-04-15T23:02:35Z</time>
      </trkpt>
      <trkpt lat="43.76806" lon="6.20271">
        <ele>482</ele>
        <time>2020-04-15T23:03:27Z</time>
      </trkpt>
      <trkpt lat="43.76876" lon="6.20379">
        <ele>483</ele>
        <time>2020-04-15T23:04:51Z</time>
      </trkpt>
      <trkpt lat="43.76898" lon="6.20394">
        <ele>482</ele>
        <time>2020-04-15T23:05:11Z</time>
      </trkpt>
      <trkpt lat="43.76967" lon="6.20398">
        <ele>475</ele>
        <time>2020-04-15T23:06:06Z</time>
      </trkpt>
      <trkpt lat="43.77036" lon="6.20406">
        <ele>471</ele>
        <time>2020-04-15T23:07:02Z</time>
      </trkpt>
      <trkpt lat="43.77092" lon="6.20417">
        <ele>470</ele>
        <time>2020-04-15T23:07:47Z</time>
      </trkpt>
      <trkpt lat="43.77191" lon="6.20429">
        <ele>472</ele>
        <time>2020-04-15T23:09:06Z</time>
      </trkpt>
      <trkpt lat="43.77228" lon="6.20404">
        <ele>473</ele>
        <time>2020-04-15T23:09:39Z</time>
      </trkpt>
      <trkpt lat="43.77262" lon="6.20397">
        <ele>473</ele>
        <time>2020-04-15T23:10:07Z</time>
      </trkpt>
      <trkpt lat="43.77278" lon="6.20421">
        <ele>474</ele>
        <time>2020-04-15T23:10:26Z</time>
      </trkpt>
      <trkpt lat="43.77291" lon="6.20446">
        <ele>476</ele>
        <time>2020-04-15T23:10:44Z</time>
      </trkpt>
      <trkpt lat="43.7729" lon="6.20508">
        <ele>479</ele>
        <time>2020-04-15T23:11:19Z</time>
      </trkpt>
      <trkpt lat="43.77335" lon="6.20527">
        <ele>481</ele>
        <time>2020-04-15T23:11:57Z</time>
      </trkpt>
      <trkpt lat="43.77368" lon="6.20558">
        <ele>480</ele>
        <time>2020-04-15T23:12:29Z</time>
      </trkpt>
      <trkpt lat="43.77407" lon="6.20564">
        <ele>478</ele>
        <time>2020-04-15T23:13:00Z</time>
      </trkpt>
      <trkpt lat="43.774" lon="6.20637">
        <ele>484</ele>
        <time>2020-04-15T23:13:43Z</time>
      </trkpt>
      <trkpt lat="43.77387" lon="6.20703">
        <ele>493</ele>
        <time>2020-04-15T23:14:23Z</time>
      </trkpt>
      <trkpt lat="43.77385" lon="6.20754">
        <ele>501</ele>
        <time>2020-04-15T23:14:52Z</time>
      </trkpt>
      <trkpt lat="43.77375" lon="6.20809">
        <ele>508</ele>
        <time>2020-04-15T23:15:25Z</time>
      </trkpt>
      <trkpt lat="43.77366" lon="6.20841">
        <ele>511</ele>
        <time>2020-04-15T23:15:45Z</time>
      </trkpt>
      <trkpt lat="43.77353" lon="6.2084">
        <ele>511</ele>
        <time>2020-04-15T23:15:55Z</time>
      </trkpt>
      <trkpt lat="43.77344" lon="6.20866">
        <ele>511</ele>
        <time>2020-04-15T23:16:12Z</time>
      </trkpt>
    </trkseg>
  </trk>
</gpx>